<?xml version="1.0" encoding="UTF-8" standalone="no" ?><gpx xmlns="http://www.topografix.com/GPX/1/1" xmlns:gpxx="http://www.garmin.com/xmlschemas/GpxExtensions/v3" xmlns:wptx1="http://www.garmin.com/xmlschemas/WaypointExtension/v1" xmlns:gpxtpx="http://www.garmin.com/xmlschemas/TrackPointExtension/v1" creator="Dakota 20" version="1.1" xmlns:xsi="http://www.w3.org/2001/XMLSchema-instance" xsi:schemaLocation="http://www.topografix.com/GPX/1/1 http://www.topografix.com/GPX/1/1/gpx.xsd http://www.garmin.com/xmlschemas/GpxExtensions/v3 http://www8.garmin.com/xmlschemas/GpxExtensionsv3.xsd http://www.garmin.com/xmlschemas/WaypointExtension/v1 http://www8.garmin.com/xmlschemas/WaypointExtensionv1.xsd http://www.garmin.com/xmlschemas/TrackPointExtension/v1 http://www.garmin.com/xmlschemas/TrackPointExtensionv1.xsd"><metadata><link href="http://www.garmin.com"><text>Garmin International</text></link><time>2014-01-16T19:20:56Z</time></metadata><trk><name>Current Track: 15 JAN 2014 10:03</name><extensions><gpxx:TrackExtension><gpxx:DisplayColor>Cyan</gpxx:DisplayColor></gpxx:TrackExtension></extensions><trkseg><trkpt lat="51.7603078298" lon="-1.8348437827"><ele>217.88</ele><time>2014-01-15T10:03:52Z</time></trkpt><trkpt lat="51.7603082489" lon="-1.8348457944"><ele>220.28</ele><time>2014-01-15T10:03:54Z</time></trkpt><trkpt lat="51.7602919880" lon="-1.8348721135"><ele>218.36</ele><time>2014-01-15T10:04:11Z</time></trkpt><trkpt lat="51.7602883838" lon="-1.8348706048"><ele>217.88</ele><time>2014-01-15T10:04:13Z</time></trkpt><trkpt lat="51.7602675967" lon="-1.8348628934"><ele>217.88</ele><time>2014-01-15T10:04:16Z</time></trkpt><trkpt lat="51.7602046486" lon="-1.8348581996"><ele>217.40</ele><time>2014-01-15T10:04:20Z</time></trkpt><trkpt lat="51.7601362523" lon="-1.8348085787"><ele>217.88</ele><time>2014-01-15T10:04:28Z</time></trkpt><trkpt lat="51.7600779142" lon="-1.8347678427"><ele>217.40</ele><time>2014-01-15T10:04:32Z</time></trkpt><trkpt lat="51.7600137927" lon="-1.8346998654"><ele>216.43</ele><time>2014-01-15T10:04:38Z</time></trkpt><trkpt lat="51.7599346675" lon="-1.8346302956"><ele>215.47</ele><time>2014-01-15T10:04:47Z</time></trkpt><trkpt lat="51.7597999703" lon="-1.8344997056"><ele>214.99</ele><time>2014-01-15T10:05:00Z</time></trkpt><trkpt lat="51.7597417161" lon="-1.8344173953"><ele>214.51</ele><time>2014-01-15T10:05:09Z</time></trkpt><trkpt lat="51.7596982978" lon="-1.8343576323"><ele>214.03</ele><time>2014-01-15T10:05:15Z</time></trkpt><trkpt lat="51.7596037500" lon="-1.8342946842"><ele>214.03</ele><time>2014-01-15T10:05:21Z</time></trkpt><trkpt lat="51.7595856450" lon="-1.8342877273"><ele>214.03</ele><time>2014-01-15T10:05:23Z</time></trkpt><trkpt lat="51.7594944499" lon="-1.8342260364"><ele>213.07</ele><time>2014-01-15T10:05:33Z</time></trkpt><trkpt lat="51.7594129778" lon="-1.8341763318"><ele>213.07</ele><time>2014-01-15T10:05:41Z</time></trkpt><trkpt lat="51.7593971360" lon="-1.8341543712"><ele>212.59</ele><time>2014-01-15T10:05:43Z</time></trkpt><trkpt lat="51.7593191005" lon="-1.8340913393"><ele>212.59</ele><time>2014-01-15T10:05:51Z</time></trkpt><trkpt lat="51.7592454236" lon="-1.8340214342"><ele>211.63</ele><time>2014-01-15T10:05:59Z</time></trkpt><trkpt lat="51.7592315935" lon="-1.8339997251"><ele>211.15</ele><time>2014-01-15T10:06:01Z</time></trkpt><trkpt lat="51.7591933720" lon="-1.8339297362"><ele>211.63</ele><time>2014-01-15T10:06:07Z</time></trkpt><trkpt lat="51.7591748480" lon="-1.8339191750"><ele>210.67</ele><time>2014-01-15T10:06:09Z</time></trkpt><trkpt lat="51.7590427492" lon="-1.8338395469"><ele>209.70</ele><time>2014-01-15T10:06:23Z</time></trkpt><trkpt lat="51.7589333653" lon="-1.8337248825"><ele>209.70</ele><time>2014-01-15T10:06:35Z</time></trkpt><trkpt lat="51.7589052860" lon="-1.8337036762"><ele>209.22</ele><time>2014-01-15T10:06:39Z</time></trkpt><trkpt lat="51.7587619554" lon="-1.8335723318"><ele>207.78</ele><time>2014-01-15T10:06:54Z</time></trkpt><trkpt lat="51.7587456107" lon="-1.8335233815"><ele>207.30</ele><time>2014-01-15T10:07:05Z</time></trkpt><trkpt lat="51.7587370612" lon="-1.8335001636"><ele>207.30</ele><time>2014-01-15T10:07:08Z</time></trkpt><trkpt lat="51.7586766277" lon="-1.8334239721"><ele>206.82</ele><time>2014-01-15T10:07:13Z</time></trkpt><trkpt lat="51.7586287670" lon="-1.8333872594"><ele>206.82</ele><time>2014-01-15T10:07:18Z</time></trkpt><trkpt lat="51.7585700098" lon="-1.8333435059"><ele>206.34</ele><time>2014-01-15T10:07:23Z</time></trkpt><trkpt lat="51.7585415114" lon="-1.8333254848"><ele>205.86</ele><time>2014-01-15T10:07:27Z</time></trkpt><trkpt lat="51.7585165333" lon="-1.8332946394"><ele>205.86</ele><time>2014-01-15T10:07:30Z</time></trkpt><trkpt lat="51.7584843468" lon="-1.8332192861"><ele>205.86</ele><time>2014-01-15T10:07:35Z</time></trkpt><trkpt lat="51.7584478855" lon="-1.8331909552"><ele>205.38</ele><time>2014-01-15T10:07:39Z</time></trkpt><trkpt lat="51.7583041359" lon="-1.8330982514"><ele>204.90</ele><time>2014-01-15T10:07:55Z</time></trkpt><trkpt lat="51.7581661697" lon="-1.8330459483"><ele>204.42</ele><time>2014-01-15T10:08:05Z</time></trkpt><trkpt lat="51.7581235059" lon="-1.8329819944"><ele>204.42</ele><time>2014-01-15T10:08:11Z</time></trkpt><trkpt lat="51.7580803391" lon="-1.8329479638"><ele>204.42</ele><time>2014-01-15T10:08:16Z</time></trkpt><trkpt lat="51.7580650840" lon="-1.8329124246"><ele>203.94</ele><time>2014-01-15T10:08:18Z</time></trkpt><trkpt lat="51.7580290418" lon="-1.8328841776"><ele>203.46</ele><time>2014-01-15T10:08:23Z</time></trkpt><trkpt lat="51.7579955980" lon="-1.8328037113"><ele>202.01</ele><time>2014-01-15T10:08:30Z</time></trkpt><trkpt lat="51.7579595558" lon="-1.8327461276"><ele>202.98</ele><time>2014-01-15T10:08:35Z</time></trkpt><trkpt lat="51.7579578795" lon="-1.8326993566"><ele>202.49</ele><time>2014-01-15T10:08:37Z</time></trkpt><trkpt lat="51.7578927521" lon="-1.8326357380"><ele>202.49</ele><time>2014-01-15T10:08:43Z</time></trkpt><trkpt lat="51.7578443047" lon="-1.8325627316"><ele>202.01</ele><time>2014-01-15T10:08:50Z</time></trkpt><trkpt lat="51.7577852122" lon="-1.8325003702"><ele>201.05</ele><time>2014-01-15T10:08:56Z</time></trkpt><trkpt lat="51.7577562109" lon="-1.8324938323"><ele>201.05</ele><time>2014-01-15T10:08:59Z</time></trkpt><trkpt lat="51.7577305622" lon="-1.8324318901"><ele>200.09</ele><time>2014-01-15T10:09:06Z</time></trkpt><trkpt lat="51.7577196658" lon="-1.8323721271"><ele>200.57</ele><time>2014-01-15T10:09:10Z</time></trkpt><trkpt lat="51.7576131318" lon="-1.8322370946"><ele>200.09</ele><time>2014-01-15T10:09:21Z</time></trkpt><trkpt lat="51.7575690430" lon="-1.8320909981"><ele>199.61</ele><time>2014-01-15T10:09:30Z</time></trkpt><trkpt lat="51.7575461604" lon="-1.8320884835"><ele>199.13</ele><time>2014-01-15T10:09:39Z</time></trkpt><trkpt lat="51.7575178295" lon="-1.8319992162"><ele>198.65</ele><time>2014-01-15T10:09:47Z</time></trkpt><trkpt lat="51.7574780155" lon="-1.8319150619"><ele>198.17</ele><time>2014-01-15T10:09:52Z</time></trkpt><trkpt lat="51.7574252095" lon="-1.8318552990"><ele>198.17</ele><time>2014-01-15T10:09:59Z</time></trkpt><trkpt lat="51.7573888320" lon="-1.8317977153"><ele>197.21</ele><time>2014-01-15T10:10:03Z</time></trkpt><trkpt lat="51.7573653627" lon="-1.8317257985"><ele>197.21</ele><time>2014-01-15T10:10:09Z</time></trkpt><trkpt lat="51.7572864890" lon="-1.8315263931"><ele>197.69</ele><time>2014-01-15T10:10:22Z</time></trkpt><trkpt lat="51.7572272290" lon="-1.8313103076"><ele>196.73</ele><time>2014-01-15T10:10:35Z</time></trkpt><trkpt lat="51.7572360300" lon="-1.8312312663"><ele>196.25</ele><time>2014-01-15T10:10:38Z</time></trkpt><trkpt lat="51.7573215254" lon="-1.8310408294"><ele>195.77</ele><time>2014-01-15T10:10:50Z</time></trkpt><trkpt lat="51.7573295720" lon="-1.8310142588"><ele>195.77</ele><time>2014-01-15T10:10:52Z</time></trkpt><trkpt lat="51.7573780194" lon="-1.8309006840"><ele>194.80</ele><time>2014-01-15T10:11:05Z</time></trkpt><trkpt lat="51.7574182525" lon="-1.8307887018"><ele>194.80</ele><time>2014-01-15T10:11:22Z</time></trkpt><trkpt lat="51.7574618384" lon="-1.8307167012"><ele>194.32</ele><time>2014-01-15T10:11:33Z</time></trkpt><trkpt lat="51.7574938573" lon="-1.8306836765"><ele>193.84</ele><time>2014-01-15T10:11:39Z</time></trkpt><trkpt lat="51.7576054204" lon="-1.8306855205"><ele>193.84</ele><time>2014-01-15T10:11:50Z</time></trkpt><trkpt lat="51.7576912511" lon="-1.8306490593"><ele>193.36</ele><time>2014-01-15T10:12:01Z</time></trkpt><trkpt lat="51.7578178179" lon="-1.8306421023"><ele>193.84</ele><time>2014-01-15T10:12:13Z</time></trkpt><trkpt lat="51.7578461487" lon="-1.8306334689"><ele>194.32</ele><time>2014-01-15T10:12:19Z</time></trkpt><trkpt lat="51.7578583863" lon="-1.8306561001"><ele>193.84</ele><time>2014-01-15T10:12:33Z</time></trkpt><trkpt lat="51.7578585539" lon="-1.8306564353"><ele>193.36</ele><time>2014-01-15T10:12:39Z</time></trkpt><trkpt lat="51.7579223402" lon="-1.8306581955"><ele>193.36</ele><time>2014-01-15T10:12:46Z</time></trkpt><trkpt lat="51.7579808459" lon="-1.8306550942"><ele>193.84</ele><time>2014-01-15T10:12:51Z</time></trkpt><trkpt lat="51.7580111045" lon="-1.8306602910"><ele>193.84</ele><time>2014-01-15T10:12:53Z</time></trkpt><trkpt lat="51.7580945883" lon="-1.8306605425"><ele>193.36</ele><time>2014-01-15T10:13:00Z</time></trkpt><trkpt lat="51.7581369169" lon="-1.8306546751"><ele>193.84</ele><time>2014-01-15T10:13:04Z</time></trkpt><trkpt lat="51.7581810057" lon="-1.8306638114"><ele>193.84</ele><time>2014-01-15T10:13:08Z</time></trkpt><trkpt lat="51.7583231628" lon="-1.8306678347"><ele>194.32</ele><time>2014-01-15T10:13:20Z</time></trkpt><trkpt lat="51.7583910562" lon="-1.8306266796"><ele>194.80</ele><time>2014-01-15T10:13:30Z</time></trkpt><trkpt lat="51.7585008591" lon="-1.8305530027"><ele>194.80</ele><time>2014-01-15T10:13:42Z</time></trkpt><trkpt lat="51.7585762963" lon="-1.8305677548"><ele>194.32</ele><time>2014-01-15T10:13:52Z</time></trkpt><trkpt lat="51.7586088181" lon="-1.8305699341"><ele>194.32</ele><time>2014-01-15T10:13:59Z</time></trkpt><trkpt lat="51.7586693354" lon="-1.8305249233"><ele>195.28</ele><time>2014-01-15T10:14:08Z</time></trkpt><trkpt lat="51.7587745283" lon="-1.8305010349"><ele>195.28</ele><time>2014-01-15T10:14:17Z</time></trkpt><trkpt lat="51.7588475347" lon="-1.8304685969"><ele>195.28</ele><time>2014-01-15T10:14:23Z</time></trkpt><trkpt lat="51.7588714231" lon="-1.8304571975"><ele>194.80</ele><time>2014-01-15T10:14:26Z</time></trkpt><trkpt lat="51.7589384783" lon="-1.8304110132"><ele>195.77</ele><time>2014-01-15T10:14:31Z</time></trkpt><trkpt lat="51.7589577567" lon="-1.8304033857"><ele>196.25</ele><time>2014-01-15T10:14:34Z</time></trkpt><trkpt lat="51.7589942180" lon="-1.8303853646"><ele>195.77</ele><time>2014-01-15T10:14:39Z</time></trkpt><trkpt lat="51.7590437550" lon="-1.8302659225"><ele>195.77</ele><time>2014-01-15T10:14:49Z</time></trkpt><trkpt lat="51.7590517178" lon="-1.8302376755"><ele>195.28</ele><time>2014-01-15T10:14:52Z</time></trkpt><trkpt lat="51.7591656279" lon="-1.8300206680"><ele>195.77</ele><time>2014-01-15T10:15:06Z</time></trkpt><trkpt lat="51.7591673043" lon="-1.8298121262"><ele>195.77</ele><time>2014-01-15T10:15:17Z</time></trkpt><trkpt lat="51.7591647897" lon="-1.8297330849"><ele>196.25</ele><time>2014-01-15T10:15:22Z</time></trkpt><trkpt lat="51.7591740936" lon="-1.8295967951"><ele>195.77</ele><time>2014-01-15T10:15:31Z</time></trkpt><trkpt lat="51.7592173442" lon="-1.8294248823"><ele>194.80</ele><time>2014-01-15T10:15:42Z</time></trkpt><trkpt lat="51.7592315096" lon="-1.8292159215"><ele>194.32</ele><time>2014-01-15T10:15:56Z</time></trkpt><trkpt lat="51.7592632771" lon="-1.8289819825"><ele>193.36</ele><time>2014-01-15T10:16:12Z</time></trkpt><trkpt lat="51.7591303401" lon="-1.8288984150"><ele>190.96</ele><time>2014-01-15T10:16:24Z</time></trkpt><trkpt lat="51.7590890173" lon="-1.8288311921"><ele>189.52</ele><time>2014-01-15T10:16:31Z</time></trkpt><trkpt lat="51.7590605188" lon="-1.8288130034"><ele>189.04</ele><time>2014-01-15T10:16:34Z</time></trkpt><trkpt lat="51.7590059526" lon="-1.8287910428"><ele>188.08</ele><time>2014-01-15T10:16:39Z</time></trkpt><trkpt lat="51.7589259893" lon="-1.8287180364"><ele>187.11</ele><time>2014-01-15T10:16:48Z</time></trkpt><trkpt lat="51.7588682380" lon="-1.8286720198"><ele>186.63</ele><time>2014-01-15T10:16:52Z</time></trkpt><trkpt lat="51.7587705050" lon="-1.8286026176"><ele>184.23</ele><time>2014-01-15T10:17:04Z</time></trkpt><trkpt lat="51.7587594409" lon="-1.8285891227"><ele>184.23</ele><time>2014-01-15T10:17:05Z</time></trkpt><trkpt lat="51.7587281764" lon="-1.8285441119"><ele>183.75</ele><time>2014-01-15T10:17:09Z</time></trkpt><trkpt lat="51.7587114125" lon="-1.8285243306"><ele>183.27</ele><time>2014-01-15T10:17:11Z</time></trkpt><trkpt lat="51.7585979216" lon="-1.8284618855"><ele>181.35</ele><time>2014-01-15T10:17:24Z</time></trkpt><trkpt lat="51.7585903779" lon="-1.8284550123"><ele>181.35</ele><time>2014-01-15T10:17:25Z</time></trkpt><trkpt lat="51.7585673276" lon="-1.8284255918"><ele>180.87</ele><time>2014-01-15T10:17:30Z</time></trkpt><trkpt lat="51.7585518211" lon="-1.8284028769"><ele>180.38</ele><time>2014-01-15T10:17:32Z</time></trkpt><trkpt lat="51.7585388292" lon="-1.8283704389"><ele>180.38</ele><time>2014-01-15T10:17:34Z</time></trkpt><trkpt lat="51.7585227359" lon="-1.8283491489"><ele>179.90</ele><time>2014-01-15T10:17:38Z</time></trkpt><trkpt lat="51.7584970035" lon="-1.8283117656"><ele>178.94</ele><time>2014-01-15T10:17:41Z</time></trkpt><trkpt lat="51.7584343906" lon="-1.8281764816"><ele>178.46</ele><time>2014-01-15T10:17:51Z</time></trkpt><trkpt lat="51.7583869491" lon="-1.8281105999"><ele>177.02</ele><time>2014-01-15T10:18:00Z</time></trkpt><trkpt lat="51.7583732028" lon="-1.8280987814"><ele>177.02</ele><time>2014-01-15T10:18:01Z</time></trkpt><trkpt lat="51.7583053932" lon="-1.8280198239"><ele>177.02</ele><time>2014-01-15T10:18:07Z</time></trkpt><trkpt lat="51.7582939938" lon="-1.8279946782"><ele>176.54</ele><time>2014-01-15T10:18:09Z</time></trkpt><trkpt lat="51.7582223285" lon="-1.8279161397"><ele>176.54</ele><time>2014-01-15T10:18:16Z</time></trkpt><trkpt lat="51.7581907287" lon="-1.8278845400"><ele>176.06</ele><time>2014-01-15T10:18:20Z</time></trkpt><trkpt lat="51.7581386771" lon="-1.8278453127"><ele>175.58</ele><time>2014-01-15T10:18:27Z</time></trkpt><trkpt lat="51.7580572888" lon="-1.8277428020"><ele>175.10</ele><time>2014-01-15T10:18:35Z</time></trkpt><trkpt lat="51.7579794209" lon="-1.8277080171"><ele>174.62</ele><time>2014-01-15T10:18:41Z</time></trkpt><trkpt lat="51.7579636630" lon="-1.8276604079"><ele>174.62</ele><time>2014-01-15T10:18:44Z</time></trkpt><trkpt lat="51.7579263635" lon="-1.8276383635"><ele>174.62</ele><time>2014-01-15T10:18:48Z</time></trkpt><trkpt lat="51.7578665167" lon="-1.8275417201"><ele>174.14</ele><time>2014-01-15T10:18:57Z</time></trkpt><trkpt lat="51.7578253616" lon="-1.8274653610"><ele>173.66</ele><time>2014-01-15T10:19:03Z</time></trkpt><trkpt lat="51.7578043230" lon="-1.8273697235"><ele>173.66</ele><time>2014-01-15T10:19:10Z</time></trkpt><trkpt lat="51.7577788420" lon="-1.8273399677"><ele>173.66</ele><time>2014-01-15T10:19:13Z</time></trkpt><trkpt lat="51.7577470746" lon="-1.8272778578"><ele>172.69</ele><time>2014-01-15T10:19:18Z</time></trkpt><trkpt lat="51.7577334121" lon="-1.8272468448"><ele>173.17</ele><time>2014-01-15T10:19:20Z</time></trkpt><trkpt lat="51.7576889880" lon="-1.8271767721"><ele>173.17</ele><time>2014-01-15T10:19:26Z</time></trkpt><trkpt lat="51.7576248664" lon="-1.8271186855"><ele>173.17</ele><time>2014-01-15T10:19:32Z</time></trkpt><trkpt lat="51.7576086055" lon="-1.8270914443"><ele>172.21</ele><time>2014-01-15T10:19:35Z</time></trkpt><trkpt lat="51.7575687077" lon="-1.8270198628"><ele>172.21</ele><time>2014-01-15T10:19:41Z</time></trkpt><trkpt lat="51.7575526983" lon="-1.8269949686"><ele>172.69</ele><time>2014-01-15T10:19:43Z</time></trkpt><trkpt lat="51.7575305700" lon="-1.8269665539"><ele>172.21</ele><time>2014-01-15T10:19:47Z</time></trkpt><trkpt lat="51.7574791890" lon="-1.8268630374"><ele>172.21</ele><time>2014-01-15T10:19:58Z</time></trkpt><trkpt lat="51.7574623413" lon="-1.8268514704"><ele>171.25</ele><time>2014-01-15T10:20:14Z</time></trkpt><trkpt lat="51.7574399617" lon="-1.8268385623"><ele>171.25</ele><time>2014-01-15T10:20:16Z</time></trkpt><trkpt lat="51.7573895864" lon="-1.8268119916"><ele>171.25</ele><time>2014-01-15T10:20:21Z</time></trkpt><trkpt lat="51.7573677935" lon="-1.8267876841"><ele>170.77</ele><time>2014-01-15T10:20:24Z</time></trkpt><trkpt lat="51.7572910152" lon="-1.8267378956"><ele>170.29</ele><time>2014-01-15T10:20:30Z</time></trkpt><trkpt lat="51.7572394665" lon="-1.8266798090"><ele>169.81</ele><time>2014-01-15T10:20:37Z</time></trkpt><trkpt lat="51.7571167555" lon="-1.8265837524"><ele>169.81</ele><time>2014-01-15T10:20:48Z</time></trkpt><trkpt lat="51.7570829764" lon="-1.8266514782"><ele>170.77</ele><time>2014-01-15T10:21:02Z</time></trkpt><trkpt lat="51.7570633627" lon="-1.8267384823"><ele>170.77</ele><time>2014-01-15T10:21:07Z</time></trkpt><trkpt lat="51.7570481077" lon="-1.8268363830"><ele>170.29</ele><time>2014-01-15T10:21:16Z</time></trkpt><trkpt lat="51.7569564935" lon="-1.8269394804"><ele>170.77</ele><time>2014-01-15T10:21:32Z</time></trkpt><trkpt lat="51.7569021787" lon="-1.8269108143"><ele>172.21</ele><time>2014-01-15T10:21:40Z</time></trkpt><trkpt lat="51.7567813117" lon="-1.8268727604"><ele>173.17</ele><time>2014-01-15T10:21:52Z</time></trkpt><trkpt lat="51.7566715088" lon="-1.8267971557"><ele>173.66</ele><time>2014-01-15T10:22:06Z</time></trkpt><trkpt lat="51.7564928904" lon="-1.8268091418"><ele>174.14</ele><time>2014-01-15T10:22:21Z</time></trkpt><trkpt lat="51.7564376537" lon="-1.8267959822"><ele>173.17</ele><time>2014-01-15T10:22:36Z</time></trkpt><trkpt lat="51.7564232368" lon="-1.8268031906"><ele>172.21</ele><time>2014-01-15T10:22:57Z</time></trkpt><trkpt lat="51.7564158607" lon="-1.8268135004"><ele>172.21</ele><time>2014-01-15T10:23:10Z</time></trkpt><trkpt lat="51.7563887034" lon="-1.8268586788"><ele>172.21</ele><time>2014-01-15T10:23:20Z</time></trkpt><trkpt lat="51.7562898807" lon="-1.8268629536"><ele>171.25</ele><time>2014-01-15T10:23:29Z</time></trkpt><trkpt lat="51.7562208977" lon="-1.8268486205"><ele>169.33</ele><time>2014-01-15T10:23:35Z</time></trkpt><trkpt lat="51.7561680917" lon="-1.8268523086"><ele>169.33</ele><time>2014-01-15T10:23:41Z</time></trkpt><trkpt lat="51.7560881283" lon="-1.8268775381"><ele>168.37</ele><time>2014-01-15T10:23:49Z</time></trkpt><trkpt lat="51.7559297942" lon="-1.8269329425"><ele>166.93</ele><time>2014-01-15T10:24:02Z</time></trkpt><trkpt lat="51.7558924109" lon="-1.8269423302"><ele>166.45</ele><time>2014-01-15T10:24:05Z</time></trkpt><trkpt lat="51.7558676004" lon="-1.8269687332"><ele>165.96</ele><time>2014-01-15T10:24:08Z</time></trkpt><trkpt lat="51.7557426263" lon="-1.8269799650"><ele>165.00</ele><time>2014-01-15T10:24:20Z</time></trkpt><trkpt lat="51.7556588911" lon="-1.8270030152"><ele>164.52</ele><time>2014-01-15T10:24:27Z</time></trkpt><trkpt lat="51.7556369305" lon="-1.8270067871"><ele>164.52</ele><time>2014-01-15T10:24:29Z</time></trkpt><trkpt lat="51.7555896565" lon="-1.8269937951"><ele>163.56</ele><time>2014-01-15T10:24:36Z</time></trkpt><trkpt lat="51.7555574700" lon="-1.8270122353"><ele>163.56</ele><time>2014-01-15T10:24:38Z</time></trkpt><trkpt lat="51.7555081844" lon="-1.8270408176"><ele>163.08</ele><time>2014-01-15T10:24:42Z</time></trkpt><trkpt lat="51.7554816976" lon="-1.8270507082"><ele>163.08</ele><time>2014-01-15T10:24:44Z</time></trkpt><trkpt lat="51.7554304842" lon="-1.8271004967"><ele>161.64</ele><time>2014-01-15T10:24:50Z</time></trkpt><trkpt lat="51.7553722300" lon="-1.8271204457"><ele>162.12</ele><time>2014-01-15T10:24:54Z</time></trkpt><trkpt lat="51.7552378681" lon="-1.8271571584"><ele>161.16</ele><time>2014-01-15T10:25:08Z</time></trkpt><trkpt lat="51.7552282289" lon="-1.8271588348"><ele>160.68</ele><time>2014-01-15T10:25:09Z</time></trkpt><trkpt lat="51.7550878320" lon="-1.8272178434"><ele>161.16</ele><time>2014-01-15T10:25:23Z</time></trkpt><trkpt lat="51.7549872492" lon="-1.8272154965"><ele>159.72</ele><time>2014-01-15T10:25:31Z</time></trkpt><trkpt lat="51.7548768595" lon="-1.8272584956"><ele>160.20</ele><time>2014-01-15T10:25:42Z</time></trkpt><trkpt lat="51.7547332775" lon="-1.8273221143"><ele>159.72</ele><time>2014-01-15T10:25:54Z</time></trkpt><trkpt lat="51.7546258215" lon="-1.8273363635"><ele>159.24</ele><time>2014-01-15T10:26:06Z</time></trkpt><trkpt lat="51.7546185292" lon="-1.8273452483"><ele>158.75</ele><time>2014-01-15T10:26:07Z</time></trkpt><trkpt lat="51.7544863466" lon="-1.8273877446"><ele>158.75</ele><time>2014-01-15T10:26:20Z</time></trkpt><trkpt lat="51.7543707602" lon="-1.8274395447"><ele>158.27</ele><time>2014-01-15T10:26:33Z</time></trkpt><trkpt lat="51.7542645615" lon="-1.8275080249"><ele>157.79</ele><time>2014-01-15T10:26:46Z</time></trkpt><trkpt lat="51.7541630566" lon="-1.8275249563"><ele>157.79</ele><time>2014-01-15T10:26:59Z</time></trkpt><trkpt lat="51.7540388368" lon="-1.8275946099"><ele>157.31</ele><time>2014-01-15T10:27:13Z</time></trkpt><trkpt lat="51.7539338954" lon="-1.8276118767"><ele>156.35</ele><time>2014-01-15T10:27:26Z</time></trkpt><trkpt lat="51.7539183889" lon="-1.8276186660"><ele>156.83</ele><time>2014-01-15T10:27:28Z</time></trkpt><trkpt lat="51.7538260203" lon="-1.8276859727"><ele>156.35</ele><time>2014-01-15T10:27:41Z</time></trkpt><trkpt lat="51.7538196500" lon="-1.8276940193"><ele>155.87</ele><time>2014-01-15T10:27:42Z</time></trkpt><trkpt lat="51.7536905687" lon="-1.8277259544"><ele>156.35</ele><time>2014-01-15T10:27:54Z</time></trkpt><trkpt lat="51.7536542751" lon="-1.8277395330"><ele>155.87</ele><time>2014-01-15T10:28:08Z</time></trkpt><trkpt lat="51.7536506709" lon="-1.8277454842"><ele>155.39</ele><time>2014-01-15T10:28:09Z</time></trkpt><trkpt lat="51.7536435463" lon="-1.8277644273"><ele>155.87</ele><time>2014-01-15T10:28:15Z</time></trkpt><trkpt lat="51.7535888962" lon="-1.8277730606"><ele>155.39</ele><time>2014-01-15T10:28:25Z</time></trkpt><trkpt lat="51.7535259482" lon="-1.8277775869"><ele>154.91</ele><time>2014-01-15T10:28:32Z</time></trkpt><trkpt lat="51.7534233537" lon="-1.8278064206"><ele>155.39</ele><time>2014-01-15T10:28:41Z</time></trkpt><trkpt lat="51.7533872277" lon="-1.8278060015"><ele>154.91</ele><time>2014-01-15T10:28:46Z</time></trkpt><trkpt lat="51.7533198372" lon="-1.8277959432"><ele>153.95</ele><time>2014-01-15T10:28:52Z</time></trkpt><trkpt lat="51.7532359343" lon="-1.8278339971"><ele>153.47</ele><time>2014-01-15T10:29:01Z</time></trkpt><trkpt lat="51.7531832960" lon="-1.8278516829"><ele>152.99</ele><time>2014-01-15T10:29:07Z</time></trkpt><trkpt lat="51.7531387880" lon="-1.8278375175"><ele>152.99</ele><time>2014-01-15T10:29:12Z</time></trkpt><trkpt lat="51.7530763429" lon="-1.8278428819"><ele>153.47</ele><time>2014-01-15T10:29:21Z</time></trkpt><trkpt lat="51.7530061863" lon="-1.8278798461"><ele>152.99</ele><time>2014-01-15T10:29:27Z</time></trkpt><trkpt lat="51.7529347725" lon="-1.8278994597"><ele>152.99</ele><time>2014-01-15T10:29:33Z</time></trkpt><trkpt lat="51.7528806254" lon="-1.8279230967"><ele>153.47</ele><time>2014-01-15T10:29:39Z</time></trkpt><trkpt lat="51.7528304178" lon="-1.8279044889"><ele>152.51</ele><time>2014-01-15T10:29:44Z</time></trkpt><trkpt lat="51.7527698167" lon="-1.8279269524"><ele>152.99</ele><time>2014-01-15T10:29:50Z</time></trkpt><trkpt lat="51.7527248058" lon="-1.8279544450"><ele>153.95</ele><time>2014-01-15T10:30:00Z</time></trkpt><trkpt lat="51.7527039349" lon="-1.8279697839"><ele>153.95</ele><time>2014-01-15T10:30:02Z</time></trkpt><trkpt lat="51.7526648752" lon="-1.8279868830"><ele>154.43</ele><time>2014-01-15T10:30:06Z</time></trkpt><trkpt lat="51.7526292522" lon="-1.8280136213"><ele>155.39</ele><time>2014-01-15T10:30:12Z</time></trkpt><trkpt lat="51.7525753565" lon="-1.8280458078"><ele>154.91</ele><time>2014-01-15T10:30:19Z</time></trkpt><trkpt lat="51.7525134142" lon="-1.8280605599"><ele>156.35</ele><time>2014-01-15T10:30:23Z</time></trkpt><trkpt lat="51.7524036113" lon="-1.8281181436"><ele>158.27</ele><time>2014-01-15T10:30:37Z</time></trkpt><trkpt lat="51.7522166111" lon="-1.8282162119"><ele>160.20</ele><time>2014-01-15T10:30:51Z</time></trkpt><trkpt lat="51.7521542497" lon="-1.8282318022"><ele>161.16</ele><time>2014-01-15T10:30:58Z</time></trkpt><trkpt lat="51.7520990968" lon="-1.8282313831"><ele>162.12</ele><time>2014-01-15T10:31:02Z</time></trkpt><trkpt lat="51.7519752961" lon="-1.8282569479"><ele>163.56</ele><time>2014-01-15T10:31:10Z</time></trkpt><trkpt lat="51.7518948298" lon="-1.8282789923"><ele>165.00</ele><time>2014-01-15T10:31:19Z</time></trkpt><trkpt lat="51.7518592067" lon="-1.8282827642"><ele>165.96</ele><time>2014-01-15T10:31:23Z</time></trkpt><trkpt lat="51.7517994437" lon="-1.8282787409"><ele>165.48</ele><time>2014-01-15T10:31:28Z</time></trkpt><trkpt lat="51.7516930774" lon="-1.8282660842"><ele>167.41</ele><time>2014-01-15T10:31:45Z</time></trkpt><trkpt lat="51.7516601365" lon="-1.8282083329"><ele>166.45</ele><time>2014-01-15T10:32:03Z</time></trkpt><trkpt lat="51.7516380083" lon="-1.8282139488"><ele>166.93</ele><time>2014-01-15T10:32:22Z</time></trkpt><trkpt lat="51.7516359128" lon="-1.8282419443"><ele>165.96</ele><time>2014-01-15T10:32:46Z</time></trkpt><trkpt lat="51.7516261060" lon="-1.8282375857"><ele>165.96</ele><time>2014-01-15T10:32:58Z</time></trkpt><trkpt lat="51.7516276147" lon="-1.8282686826"><ele>166.45</ele><time>2014-01-15T10:33:10Z</time></trkpt><trkpt lat="51.7516376730" lon="-1.8282416929"><ele>166.45</ele><time>2014-01-15T10:33:27Z</time></trkpt><trkpt lat="51.7516280338" lon="-1.8282492366"><ele>165.48</ele><time>2014-01-15T10:33:49Z</time></trkpt><trkpt lat="51.7516313866" lon="-1.8282510806"><ele>165.00</ele><time>2014-01-15T10:34:16Z</time></trkpt><trkpt lat="51.7516228370" lon="-1.8282507453"><ele>165.00</ele><time>2014-01-15T10:34:40Z</time></trkpt><trkpt lat="51.7516065761" lon="-1.8282471411"><ele>163.56</ele><time>2014-01-15T10:35:06Z</time></trkpt><trkpt lat="51.7516083363" lon="-1.8282406032"><ele>163.56</ele><time>2014-01-15T10:35:27Z</time></trkpt><trkpt lat="51.7516057380" lon="-1.8282375857"><ele>163.08</ele><time>2014-01-15T10:35:55Z</time></trkpt><trkpt lat="51.7515998706" lon="-1.8282343168"><ele>162.60</ele><time>2014-01-15T10:36:19Z</time></trkpt><trkpt lat="51.7516013794" lon="-1.8282374181"><ele>161.64</ele><time>2014-01-15T10:36:48Z</time></trkpt><trkpt lat="51.7516043968" lon="-1.8282385077"><ele>161.64</ele><time>2014-01-15T10:37:19Z</time></trkpt><trkpt lat="51.7516002059" lon="-1.8282401003"><ele>160.68</ele><time>2014-01-15T10:37:41Z</time></trkpt><trkpt lat="51.7516019661" lon="-1.8282377534"><ele>160.68</ele><time>2014-01-15T10:38:08Z</time></trkpt><trkpt lat="51.7516007926" lon="-1.8282397650"><ele>160.68</ele><time>2014-01-15T10:38:32Z</time></trkpt><trkpt lat="51.7515970208" lon="-1.8282417767"><ele>160.20</ele><time>2014-01-15T10:39:00Z</time></trkpt><trkpt lat="51.7515584640" lon="-1.8282626476"><ele>159.24</ele><time>2014-01-15T10:39:23Z</time></trkpt><trkpt lat="51.7515493277" lon="-1.8282632343"><ele>159.24</ele><time>2014-01-15T10:39:24Z</time></trkpt><trkpt lat="51.7515202425" lon="-1.8282666709"><ele>160.20</ele><time>2014-01-15T10:39:39Z</time></trkpt><trkpt lat="51.7513913289" lon="-1.8281535152"><ele>159.72</ele><time>2014-01-15T10:39:54Z</time></trkpt><trkpt lat="51.7512994632" lon="-1.8280034792"><ele>159.72</ele><time>2014-01-15T10:40:07Z</time></trkpt><trkpt lat="51.7512267921" lon="-1.8278823607"><ele>159.72</ele><time>2014-01-15T10:40:22Z</time></trkpt><trkpt lat="51.7511651013" lon="-1.8278125394"><ele>158.75</ele><time>2014-01-15T10:40:35Z</time></trkpt><trkpt lat="51.7511279695" lon="-1.8276979588"><ele>159.24</ele><time>2014-01-15T10:40:44Z</time></trkpt><trkpt lat="51.7510348465" lon="-1.8275309075"><ele>158.75</ele><time>2014-01-15T10:40:58Z</time></trkpt><trkpt lat="51.7510164902" lon="-1.8274858128"><ele>158.27</ele><time>2014-01-15T10:41:12Z</time></trkpt><trkpt lat="51.7509632651" lon="-1.8274248764"><ele>158.27</ele><time>2014-01-15T10:41:20Z</time></trkpt><trkpt lat="51.7508543842" lon="-1.8272056896"><ele>158.75</ele><time>2014-01-15T10:41:36Z</time></trkpt><trkpt lat="51.7508344352" lon="-1.8271779455"><ele>158.75</ele><time>2014-01-15T10:41:38Z</time></trkpt><trkpt lat="51.7507542204" lon="-1.8269999977"><ele>159.24</ele><time>2014-01-15T10:41:51Z</time></trkpt><trkpt lat="51.7506930325" lon="-1.8269221298"><ele>158.27</ele><time>2014-01-15T10:42:04Z</time></trkpt><trkpt lat="51.7506320123" lon="-1.8267872650"><ele>158.27</ele><time>2014-01-15T10:42:16Z</time></trkpt><trkpt lat="51.7505668849" lon="-1.8266529031"><ele>158.27</ele><time>2014-01-15T10:42:28Z</time></trkpt><trkpt lat="51.7505163420" lon="-1.8265235703"><ele>157.79</ele><time>2014-01-15T10:42:39Z</time></trkpt><trkpt lat="51.7504945491" lon="-1.8264164496"><ele>157.31</ele><time>2014-01-15T10:42:51Z</time></trkpt><trkpt lat="51.7504302599" lon="-1.8262997735"><ele>156.83</ele><time>2014-01-15T10:43:02Z</time></trkpt><trkpt lat="51.7503678985" lon="-1.8261008710"><ele>157.31</ele><time>2014-01-15T10:43:16Z</time></trkpt><trkpt lat="51.7503637075" lon="-1.8260786589"><ele>156.83</ele><time>2014-01-15T10:43:17Z</time></trkpt><trkpt lat="51.7503061239" lon="-1.8259292934"><ele>156.35</ele><time>2014-01-15T10:43:29Z</time></trkpt><trkpt lat="51.7502584308" lon="-1.8258137070"><ele>156.35</ele><time>2014-01-15T10:43:42Z</time></trkpt><trkpt lat="51.7502282560" lon="-1.8257027306"><ele>155.39</ele><time>2014-01-15T10:43:56Z</time></trkpt><trkpt lat="51.7501744442" lon="-1.8255865574"><ele>154.91</ele><time>2014-01-15T10:44:13Z</time></trkpt><trkpt lat="51.7501148488" lon="-1.8253723159"><ele>153.47</ele><time>2014-01-15T10:44:33Z</time></trkpt><trkpt lat="51.7500783876" lon="-1.8252847251"><ele>152.99</ele><time>2014-01-15T10:44:47Z</time></trkpt><trkpt lat="51.7500353884" lon="-1.8251359463"><ele>152.03</ele><time>2014-01-15T10:45:00Z</time></trkpt><trkpt lat="51.7499234900" lon="-1.8248136621"><ele>150.58</ele><time>2014-01-15T10:45:12Z</time></trkpt><trkpt lat="51.7498783953" lon="-1.8246704992"><ele>149.62</ele><time>2014-01-15T10:45:26Z</time></trkpt><trkpt lat="51.7498016171" lon="-1.8244824931"><ele>149.14</ele><time>2014-01-15T10:45:42Z</time></trkpt><trkpt lat="51.7497689277" lon="-1.8243365642"><ele>148.18</ele><time>2014-01-15T10:45:54Z</time></trkpt><trkpt lat="51.7497704364" lon="-1.8243203033"><ele>147.70</ele><time>2014-01-15T10:46:16Z</time></trkpt><trkpt lat="51.7497673351" lon="-1.8243057188"><ele>147.70</ele><time>2014-01-15T10:46:34Z</time></trkpt><trkpt lat="51.7497426923" lon="-1.8242358975"><ele>146.74</ele><time>2014-01-15T10:46:53Z</time></trkpt><trkpt lat="51.7497053929" lon="-1.8241079058"><ele>145.78</ele><time>2014-01-15T10:47:07Z</time></trkpt><trkpt lat="51.7496613879" lon="-1.8239435367"><ele>145.30</ele><time>2014-01-15T10:47:19Z</time></trkpt><trkpt lat="51.7496313807" lon="-1.8238116894"><ele>144.82</ele><time>2014-01-15T10:47:31Z</time></trkpt><trkpt lat="51.7495827656" lon="-1.8236777466"><ele>144.34</ele><time>2014-01-15T10:47:44Z</time></trkpt><trkpt lat="51.7495792452" lon="-1.8236583006"><ele>144.34</ele><time>2014-01-15T10:47:45Z</time></trkpt><trkpt lat="51.7495126091" lon="-1.8234663550"><ele>143.85</ele><time>2014-01-15T10:47:59Z</time></trkpt><trkpt lat="51.7494604737" lon="-1.8232911732"><ele>142.89</ele><time>2014-01-15T10:48:11Z</time></trkpt><trkpt lat="51.7494270299" lon="-1.8231957871"><ele>142.41</ele><time>2014-01-15T10:48:17Z</time></trkpt><trkpt lat="51.7493898980" lon="-1.8229895085"><ele>141.45</ele><time>2014-01-15T10:48:31Z</time></trkpt><trkpt lat="51.7493607290" lon="-1.8228736706"><ele>141.93</ele><time>2014-01-15T10:48:44Z</time></trkpt><trkpt lat="51.7493200768" lon="-1.8227242213"><ele>141.93</ele><time>2014-01-15T10:48:56Z</time></trkpt><trkpt lat="51.7493009660" lon="-1.8226501253"><ele>141.93</ele><time>2014-01-15T10:49:07Z</time></trkpt><trkpt lat="51.7492493335" lon="-1.8224469479"><ele>141.93</ele><time>2014-01-15T10:49:23Z</time></trkpt><trkpt lat="51.7491800152" lon="-1.8222581875"><ele>140.97</ele><time>2014-01-15T10:49:37Z</time></trkpt><trkpt lat="51.7491345014" lon="-1.8221221492"><ele>140.97</ele><time>2014-01-15T10:49:46Z</time></trkpt><trkpt lat="51.7490983754" lon="-1.8219369929"><ele>140.01</ele><time>2014-01-15T10:49:59Z</time></trkpt><trkpt lat="51.7490641773" lon="-1.8218488991"><ele>140.01</ele><time>2014-01-15T10:50:06Z</time></trkpt><trkpt lat="51.7489620857" lon="-1.8216480687"><ele>139.53</ele><time>2014-01-15T10:50:18Z</time></trkpt><trkpt lat="51.7489195894" lon="-1.8215729669"><ele>138.57</ele><time>2014-01-15T10:50:37Z</time></trkpt><trkpt lat="51.7489395384" lon="-1.8215698656"><ele>137.61</ele><time>2014-01-15T10:50:59Z</time></trkpt><trkpt lat="51.7488081940" lon="-1.8213100266"><ele>135.20</ele><time>2014-01-15T10:51:17Z</time></trkpt><trkpt lat="51.7486940324" lon="-1.8209857307"><ele>133.28</ele><time>2014-01-15T10:51:30Z</time></trkpt><trkpt lat="51.7486543022" lon="-1.8208879139"><ele>132.32</ele><time>2014-01-15T10:51:48Z</time></trkpt><trkpt lat="51.7486286536" lon="-1.8208640255"><ele>129.43</ele><time>2014-01-15T10:52:06Z</time></trkpt><trkpt lat="51.7485833913" lon="-1.8207719084"><ele>128.47</ele><time>2014-01-15T10:52:22Z</time></trkpt><trkpt lat="51.7485223711" lon="-1.8207389675"><ele>125.11</ele><time>2014-01-15T10:52:39Z</time></trkpt><trkpt lat="51.7483875062" lon="-1.8205576669"><ele>122.71</ele><time>2014-01-15T10:52:52Z</time></trkpt><trkpt lat="51.7483197805" lon="-1.8204821460"><ele>122.71</ele><time>2014-01-15T10:53:04Z</time></trkpt><trkpt lat="51.7482901085" lon="-1.8204268254"><ele>122.22</ele><time>2014-01-15T10:53:19Z</time></trkpt><trkpt lat="51.7482689023" lon="-1.8204116542"><ele>121.74</ele><time>2014-01-15T10:53:35Z</time></trkpt><trkpt lat="51.7482741829" lon="-1.8203987461"><ele>121.26</ele><time>2014-01-15T10:53:52Z</time></trkpt><trkpt lat="51.7482528090" lon="-1.8204018474"><ele>121.26</ele><time>2014-01-15T10:54:07Z</time></trkpt><trkpt lat="51.7482585926" lon="-1.8203788809"><ele>121.26</ele><time>2014-01-15T10:54:20Z</time></trkpt><trkpt lat="51.7482382245" lon="-1.8203152623"><ele>121.74</ele><time>2014-01-15T10:54:24Z</time></trkpt><trkpt lat="51.7482218798" lon="-1.8202458601"><ele>120.78</ele><time>2014-01-15T10:54:38Z</time></trkpt><trkpt lat="51.7482216284" lon="-1.8202570081"><ele>120.78</ele><time>2014-01-15T10:54:56Z</time></trkpt><trkpt lat="51.7482068762" lon="-1.8202239834"><ele>120.78</ele><time>2014-01-15T10:55:17Z</time></trkpt><trkpt lat="51.7481853347" lon="-1.8202075548"><ele>120.78</ele><time>2014-01-15T10:55:20Z</time></trkpt><trkpt lat="51.7480586842" lon="-1.8200494722"><ele>120.78</ele><time>2014-01-15T10:55:34Z</time></trkpt><trkpt lat="51.7479985859" lon="-1.8199864402"><ele>121.26</ele><time>2014-01-15T10:55:43Z</time></trkpt><trkpt lat="51.7479300220" lon="-1.8198830076"><ele>122.22</ele><time>2014-01-15T10:55:55Z</time></trkpt><trkpt lat="51.7478940636" lon="-1.8198617175"><ele>122.71</ele><time>2014-01-15T10:56:11Z</time></trkpt><trkpt lat="51.7478324566" lon="-1.8197846040"><ele>124.15</ele><time>2014-01-15T10:56:24Z</time></trkpt><trkpt lat="51.7478023656" lon="-1.8197234999"><ele>125.11</ele><time>2014-01-15T10:56:37Z</time></trkpt><trkpt lat="51.7477164511" lon="-1.8196126912"><ele>127.03</ele><time>2014-01-15T10:56:50Z</time></trkpt><trkpt lat="51.7476241663" lon="-1.8195090909"><ele>128.47</ele><time>2014-01-15T10:57:03Z</time></trkpt><trkpt lat="51.7475397605" lon="-1.8193621561"><ele>130.40</ele><time>2014-01-15T10:57:21Z</time></trkpt><trkpt lat="51.7474633176" lon="-1.8192389421"><ele>132.32</ele><time>2014-01-15T10:57:37Z</time></trkpt><trkpt lat="51.7474592943" lon="-1.8191804364"><ele>132.32</ele><time>2014-01-15T10:57:54Z</time></trkpt><trkpt lat="51.7474106792" lon="-1.8191131297"><ele>133.76</ele><time>2014-01-15T10:58:08Z</time></trkpt><trkpt lat="51.7473141197" lon="-1.8189158197"><ele>135.68</ele><time>2014-01-15T10:58:26Z</time></trkpt><trkpt lat="51.7472059932" lon="-1.8187904265"><ele>137.61</ele><time>2014-01-15T10:58:41Z</time></trkpt><trkpt lat="51.7471335735" lon="-1.8187281489"><ele>139.53</ele><time>2014-01-15T10:58:55Z</time></trkpt><trkpt lat="51.7470315658" lon="-1.8185879197"><ele>140.97</ele><time>2014-01-15T10:59:11Z</time></trkpt><trkpt lat="51.7469794303" lon="-1.8185026757"><ele>142.41</ele><time>2014-01-15T10:59:26Z</time></trkpt><trkpt lat="51.7468645982" lon="-1.8183846585"><ele>142.89</ele><time>2014-01-15T10:59:42Z</time></trkpt><trkpt lat="51.7468133010" lon="-1.8183396477"><ele>143.85</ele><time>2014-01-15T10:59:54Z</time></trkpt><trkpt lat="51.7466721497" lon="-1.8181860913"><ele>144.82</ele><time>2014-01-15T11:00:07Z</time></trkpt><trkpt lat="51.7465651128" lon="-1.8180138431"><ele>146.26</ele><time>2014-01-15T11:00:22Z</time></trkpt><trkpt lat="51.7464893404" lon="-1.8178752065"><ele>146.26</ele><time>2014-01-15T11:00:35Z</time></trkpt><trkpt lat="51.7464020010" lon="-1.8177514058"><ele>146.74</ele><time>2014-01-15T11:00:50Z</time></trkpt><trkpt lat="51.7464024201" lon="-1.8177776411"><ele>146.26</ele><time>2014-01-15T11:01:05Z</time></trkpt><trkpt lat="51.7464071978" lon="-1.8178246636"><ele>146.26</ele><time>2014-01-15T11:01:09Z</time></trkpt><trkpt lat="51.7464323435" lon="-1.8179544155"><ele>146.26</ele><time>2014-01-15T11:01:16Z</time></trkpt><trkpt lat="51.7464905139" lon="-1.8182940502"><ele>145.30</ele><time>2014-01-15T11:01:31Z</time></trkpt><trkpt lat="51.7465613410" lon="-1.8186040968"><ele>144.82</ele><time>2014-01-15T11:01:46Z</time></trkpt><trkpt lat="51.7465902586" lon="-1.8187671248"><ele>145.30</ele><time>2014-01-15T11:01:54Z</time></trkpt><trkpt lat="51.7466430645" lon="-1.8191024009"><ele>144.34</ele><time>2014-01-15T11:02:10Z</time></trkpt><trkpt lat="51.7466611695" lon="-1.8192864675"><ele>143.85</ele><time>2014-01-15T11:02:24Z</time></trkpt><trkpt lat="51.7466880754" lon="-1.8194441311"><ele>142.41</ele><time>2014-01-15T11:02:41Z</time></trkpt><trkpt lat="51.7466743290" lon="-1.8194209132"><ele>143.37</ele><time>2014-01-15T11:02:49Z</time></trkpt><trkpt lat="51.7466767598" lon="-1.8193843681"><ele>143.37</ele><time>2014-01-15T11:03:05Z</time></trkpt><trkpt lat="51.7466728203" lon="-1.8193708733"><ele>143.37</ele><time>2014-01-15T11:03:06Z</time></trkpt><trkpt lat="51.7466663662" lon="-1.8193386868"><ele>143.37</ele><time>2014-01-15T11:03:08Z</time></trkpt><trkpt lat="51.7465997301" lon="-1.8189566396"><ele>143.37</ele><time>2014-01-15T11:03:25Z</time></trkpt><trkpt lat="51.7465567309" lon="-1.8186911009"><ele>143.37</ele><time>2014-01-15T11:03:36Z</time></trkpt><trkpt lat="51.7465093732" lon="-1.8184249755"><ele>143.85</ele><time>2014-01-15T11:03:51Z</time></trkpt><trkpt lat="51.7465066910" lon="-1.8184050266"><ele>143.85</ele><time>2014-01-15T11:03:52Z</time></trkpt><trkpt lat="51.7464938667" lon="-1.8183083832"><ele>143.37</ele><time>2014-01-15T11:03:56Z</time></trkpt><trkpt lat="51.7464822996" lon="-1.8181886058"><ele>143.37</ele><time>2014-01-15T11:04:00Z</time></trkpt><trkpt lat="51.7464139871" lon="-1.8178961612"><ele>143.85</ele><time>2014-01-15T11:04:14Z</time></trkpt><trkpt lat="51.7464040127" lon="-1.8178603705"><ele>143.85</ele><time>2014-01-15T11:04:16Z</time></trkpt><trkpt lat="51.7463243008" lon="-1.8178764638"><ele>144.34</ele><time>2014-01-15T11:04:27Z</time></trkpt><trkpt lat="51.7461625300" lon="-1.8180231471"><ele>144.82</ele><time>2014-01-15T11:04:45Z</time></trkpt><trkpt lat="51.7460134160" lon="-1.8181603588"><ele>145.30</ele><time>2014-01-15T11:05:01Z</time></trkpt><trkpt lat="51.7458687443" lon="-1.8181871809"><ele>146.26</ele><time>2014-01-15T11:05:14Z</time></trkpt><trkpt lat="51.7456872761" lon="-1.8181128334"><ele>146.74</ele><time>2014-01-15T11:05:31Z</time></trkpt><trkpt lat="51.7455530819" lon="-1.8180663977"><ele>147.22</ele><time>2014-01-15T11:05:43Z</time></trkpt><trkpt lat="51.7453978490" lon="-1.8180344626"><ele>146.74</ele><time>2014-01-15T11:05:58Z</time></trkpt><trkpt lat="51.7452297918" lon="-1.8179789744"><ele>146.74</ele><time>2014-01-15T11:06:13Z</time></trkpt><trkpt lat="51.7451096792" lon="-1.8179416750"><ele>146.26</ele><time>2014-01-15T11:06:24Z</time></trkpt><trkpt lat="51.7449702881" lon="-1.8179192953"><ele>147.22</ele><time>2014-01-15T11:06:37Z</time></trkpt><trkpt lat="51.7447826173" lon="-1.8178674951"><ele>146.74</ele><time>2014-01-15T11:06:54Z</time></trkpt><trkpt lat="51.7446013168" lon="-1.8178082351"><ele>146.26</ele><time>2014-01-15T11:07:10Z</time></trkpt><trkpt lat="51.7445020750" lon="-1.8178009428"><ele>146.74</ele><time>2014-01-15T11:07:25Z</time></trkpt><trkpt lat="51.7444387078" lon="-1.8177743722"><ele>146.74</ele><time>2014-01-15T11:07:38Z</time></trkpt><trkpt lat="51.7444185074" lon="-1.8177755456"><ele>145.78</ele><time>2014-01-15T11:07:51Z</time></trkpt><trkpt lat="51.7444097064" lon="-1.8177686725"><ele>146.26</ele><time>2014-01-15T11:08:14Z</time></trkpt><trkpt lat="51.7444034200" lon="-1.8177509867"><ele>145.78</ele><time>2014-01-15T11:08:32Z</time></trkpt><trkpt lat="51.7443567328" lon="-1.8177524954"><ele>145.78</ele><time>2014-01-15T11:08:41Z</time></trkpt><trkpt lat="51.7442363687" lon="-1.8177071493"><ele>145.78</ele><time>2014-01-15T11:08:55Z</time></trkpt><trkpt lat="51.7442061100" lon="-1.8176989350"><ele>145.78</ele><time>2014-01-15T11:08:58Z</time></trkpt><trkpt lat="51.7440869194" lon="-1.8176738732"><ele>145.30</ele><time>2014-01-15T11:09:10Z</time></trkpt><trkpt lat="51.7440183554" lon="-1.8176650722"><ele>145.78</ele><time>2014-01-15T11:09:18Z</time></trkpt><trkpt lat="51.7439730931" lon="-1.8176405132"><ele>145.30</ele><time>2014-01-15T11:09:23Z</time></trkpt><trkpt lat="51.7438932974" lon="-1.8176075723"><ele>144.82</ele><time>2014-01-15T11:09:32Z</time></trkpt><trkpt lat="51.7438162677" lon="-1.8175877910"><ele>144.82</ele><time>2014-01-15T11:09:40Z</time></trkpt><trkpt lat="51.7436669860" lon="-1.8175421096"><ele>145.30</ele><time>2014-01-15T11:09:54Z</time></trkpt><trkpt lat="51.7435733601" lon="-1.8175285310"><ele>146.26</ele><time>2014-01-15T11:10:06Z</time></trkpt><trkpt lat="51.7435671575" lon="-1.8175321352"><ele>145.78</ele><time>2014-01-15T11:10:20Z</time></trkpt><trkpt lat="51.7435222305" lon="-1.8175468035"><ele>145.30</ele><time>2014-01-15T11:10:34Z</time></trkpt><trkpt lat="51.7435207218" lon="-1.8175468873"><ele>145.30</ele><time>2014-01-15T11:10:35Z</time></trkpt><trkpt lat="51.7434281856" lon="-1.8175374996"><ele>145.30</ele><time>2014-01-15T11:10:43Z</time></trkpt><trkpt lat="51.7432954162" lon="-1.8175141979"><ele>144.34</ele><time>2014-01-15T11:10:55Z</time></trkpt><trkpt lat="51.7432843521" lon="-1.8175064865"><ele>144.34</ele><time>2014-01-15T11:10:56Z</time></trkpt><trkpt lat="51.7431779020" lon="-1.8174959254"><ele>144.82</ele><time>2014-01-15T11:11:05Z</time></trkpt><trkpt lat="51.7430268601" lon="-1.8175028823"><ele>144.82</ele><time>2014-01-15T11:11:19Z</time></trkpt><trkpt lat="51.7430057377" lon="-1.8174715340"><ele>144.82</ele><time>2014-01-15T11:11:22Z</time></trkpt><trkpt lat="51.7429262772" lon="-1.8174485676"><ele>144.34</ele><time>2014-01-15T11:11:30Z</time></trkpt><trkpt lat="51.7427862156" lon="-1.8174301274"><ele>144.34</ele><time>2014-01-15T11:11:43Z</time></trkpt><trkpt lat="51.7426831182" lon="-1.8174111843"><ele>143.85</ele><time>2014-01-15T11:11:55Z</time></trkpt><trkpt lat="51.7426151410" lon="-1.8173998687"><ele>143.85</ele><time>2014-01-15T11:12:00Z</time></trkpt><trkpt lat="51.7424579803" lon="-1.8173603062"><ele>144.34</ele><time>2014-01-15T11:12:13Z</time></trkpt><trkpt lat="51.7424160708" lon="-1.8173457216"><ele>143.85</ele><time>2014-01-15T11:12:17Z</time></trkpt><trkpt lat="51.7423467524" lon="-1.8173512537"><ele>143.85</ele><time>2014-01-15T11:12:31Z</time></trkpt><trkpt lat="51.7423040047" lon="-1.8173561990"><ele>143.85</ele><time>2014-01-15T11:12:43Z</time></trkpt><trkpt lat="51.7422826309" lon="-1.8173653353"><ele>144.34</ele><time>2014-01-15T11:13:08Z</time></trkpt><trkpt lat="51.7422480974" lon="-1.8173590489"><ele>143.37</ele><time>2014-01-15T11:13:27Z</time></trkpt><trkpt lat="51.7421947047" lon="-1.8173652515"><ele>144.34</ele><time>2014-01-15T11:13:42Z</time></trkpt><trkpt lat="51.7420935351" lon="-1.8173442129"><ele>144.34</ele><time>2014-01-15T11:13:54Z</time></trkpt><trkpt lat="51.7420164216" lon="-1.8173826858"><ele>144.34</ele><time>2014-01-15T11:14:03Z</time></trkpt><trkpt lat="51.7420164216" lon="-1.8176284432"><ele>144.34</ele><time>2014-01-15T11:14:18Z</time></trkpt><trkpt lat="51.7420222890" lon="-1.8178176228"><ele>143.85</ele><time>2014-01-15T11:14:31Z</time></trkpt><trkpt lat="51.7419861630" lon="-1.8180648889"><ele>143.37</ele><time>2014-01-15T11:14:43Z</time></trkpt><trkpt lat="51.7419823073" lon="-1.8182547390"><ele>144.34</ele><time>2014-01-15T11:14:56Z</time></trkpt><trkpt lat="51.7419725843" lon="-1.8184647895"><ele>144.34</ele><time>2014-01-15T11:15:09Z</time></trkpt><trkpt lat="51.7419680580" lon="-1.8186898436"><ele>144.34</ele><time>2014-01-15T11:15:21Z</time></trkpt><trkpt lat="51.7419845704" lon="-1.8188450765"><ele>143.37</ele><time>2014-01-15T11:15:33Z</time></trkpt><trkpt lat="51.7419536412" lon="-1.8191576377"><ele>143.85</ele><time>2014-01-15T11:15:46Z</time></trkpt><trkpt lat="51.7419287469" lon="-1.8193887267"><ele>143.37</ele><time>2014-01-15T11:15:59Z</time></trkpt><trkpt lat="51.7419677228" lon="-1.8195999507"><ele>143.85</ele><time>2014-01-15T11:16:13Z</time></trkpt><trkpt lat="51.7420093808" lon="-1.8195609748"><ele>143.37</ele><time>2014-01-15T11:16:28Z</time></trkpt><trkpt lat="51.7420066986" lon="-1.8195428699"><ele>143.37</ele><time>2014-01-15T11:16:42Z</time></trkpt><trkpt lat="51.7420059443" lon="-1.8195433728"><ele>143.85</ele><time>2014-01-15T11:16:58Z</time></trkpt><trkpt lat="51.7420039326" lon="-1.8195421156"><ele>143.37</ele><time>2014-01-15T11:17:16Z</time></trkpt><trkpt lat="51.7419896834" lon="-1.8195429537"><ele>142.41</ele><time>2014-01-15T11:17:34Z</time></trkpt><trkpt lat="51.7419866659" lon="-1.8195147067"><ele>142.89</ele><time>2014-01-15T11:17:45Z</time></trkpt><trkpt lat="51.7420071177" lon="-1.8195456360"><ele>143.37</ele><time>2014-01-15T11:17:58Z</time></trkpt><trkpt lat="51.7420113925" lon="-1.8195435405"><ele>143.85</ele><time>2014-01-15T11:18:13Z</time></trkpt><trkpt lat="51.7420140747" lon="-1.8195503298"><ele>142.89</ele><time>2014-01-15T11:18:29Z</time></trkpt><trkpt lat="51.7420084588" lon="-1.8195525929"><ele>143.37</ele><time>2014-01-15T11:18:47Z</time></trkpt><trkpt lat="51.7420089617" lon="-1.8195530958"><ele>142.41</ele><time>2014-01-15T11:19:10Z</time></trkpt><trkpt lat="51.7420090456" lon="-1.8195517547"><ele>143.37</ele><time>2014-01-15T11:19:30Z</time></trkpt><trkpt lat="51.7420004960" lon="-1.8195577059"><ele>142.41</ele><time>2014-01-15T11:19:54Z</time></trkpt><trkpt lat="51.7420018371" lon="-1.8195514195"><ele>142.89</ele><time>2014-01-15T11:20:16Z</time></trkpt><trkpt lat="51.7420013342" lon="-1.8195468094"><ele>142.41</ele><time>2014-01-15T11:20:44Z</time></trkpt><trkpt lat="51.7419965565" lon="-1.8195503298"><ele>142.41</ele><time>2014-01-15T11:21:10Z</time></trkpt><trkpt lat="51.7419960536" lon="-1.8195520062"><ele>142.41</ele><time>2014-01-15T11:21:37Z</time></trkpt><trkpt lat="51.7419953831" lon="-1.8195504975"><ele>141.93</ele><time>2014-01-15T11:22:04Z</time></trkpt><trkpt lat="51.7419917788" lon="-1.8195504136"><ele>141.93</ele><time>2014-01-15T11:22:30Z</time></trkpt><trkpt lat="51.7419916112" lon="-1.8195456360"><ele>141.93</ele><time>2014-01-15T11:22:56Z</time></trkpt><trkpt lat="51.7419896834" lon="-1.8195445463"><ele>141.93</ele><time>2014-01-15T11:23:29Z</time></trkpt><trkpt lat="51.7419978138" lon="-1.8195463903"><ele>141.45</ele><time>2014-01-15T11:23:49Z</time></trkpt><trkpt lat="51.7420017533" lon="-1.8195417803"><ele>141.93</ele><time>2014-01-15T11:24:11Z</time></trkpt><trkpt lat="51.7420020886" lon="-1.8195471447"><ele>140.97</ele><time>2014-01-15T11:24:38Z</time></trkpt><trkpt lat="51.7420042679" lon="-1.8195551913"><ele>141.45</ele><time>2014-01-15T11:25:02Z</time></trkpt><trkpt lat="51.7420108896" lon="-1.8195548560"><ele>140.97</ele><time>2014-01-15T11:25:25Z</time></trkpt><trkpt lat="51.7420983128" lon="-1.8196458835"><ele>140.97</ele><time>2014-01-15T11:25:42Z</time></trkpt><trkpt lat="51.7421817966" lon="-1.8196656648"><ele>140.01</ele><time>2014-01-15T11:25:59Z</time></trkpt><trkpt lat="51.7422857322" lon="-1.8195783254"><ele>139.53</ele><time>2014-01-15T11:26:19Z</time></trkpt><trkpt lat="51.7424035817" lon="-1.8196018785"><ele>139.05</ele><time>2014-01-15T11:26:40Z</time></trkpt><trkpt lat="51.7427152209" lon="-1.8201869354"><ele>137.61</ele><time>2014-01-15T11:26:59Z</time></trkpt><trkpt lat="51.7429433763" lon="-1.8204126600"><ele>137.61</ele><time>2014-01-15T11:27:18Z</time></trkpt><trkpt lat="51.7430765647" lon="-1.8205776997"><ele>137.13</ele><time>2014-01-15T11:27:36Z</time></trkpt><trkpt lat="51.7431706097" lon="-1.8207015842"><ele>136.16</ele><time>2014-01-15T11:27:51Z</time></trkpt><trkpt lat="51.7431891337" lon="-1.8207256403"><ele>135.20</ele><time>2014-01-15T11:27:55Z</time></trkpt><trkpt lat="51.7432802450" lon="-1.8208184280"><ele>134.24</ele><time>2014-01-15T11:28:11Z</time></trkpt><trkpt lat="51.7433400080" lon="-1.8208956253"><ele>133.28</ele><time>2014-01-15T11:28:23Z</time></trkpt><trkpt lat="51.7433478869" lon="-1.8208960444"><ele>132.80</ele><time>2014-01-15T11:28:39Z</time></trkpt><trkpt lat="51.7433810793" lon="-1.8209460005"><ele>131.36</ele><time>2014-01-15T11:28:53Z</time></trkpt><trkpt lat="51.7435057182" lon="-1.8210601620"><ele>129.43</ele><time>2014-01-15T11:29:08Z</time></trkpt><trkpt lat="51.7435692530" lon="-1.8211397063"><ele>128.47</ele><time>2014-01-15T11:29:22Z</time></trkpt><trkpt lat="51.7435762100" lon="-1.8211332522"><ele>128.47</ele><time>2014-01-15T11:29:24Z</time></trkpt><trkpt lat="51.7436270043" lon="-1.8210790213"><ele>127.03</ele><time>2014-01-15T11:29:28Z</time></trkpt><trkpt lat="51.7438000906" lon="-1.8209264707"><ele>128.47</ele><time>2014-01-15T11:29:38Z</time></trkpt><trkpt lat="51.7439823132" lon="-1.8208019156"><ele>130.40</ele><time>2014-01-15T11:29:51Z</time></trkpt><trkpt lat="51.7440857459" lon="-1.8206183519"><ele>130.88</ele><time>2014-01-15T11:30:04Z</time></trkpt><trkpt lat="51.7441318464" lon="-1.8206373788"><ele>130.40</ele><time>2014-01-15T11:30:16Z</time></trkpt><trkpt lat="51.7441349477" lon="-1.8206549808"><ele>130.40</ele><time>2014-01-15T11:30:21Z</time></trkpt><trkpt lat="51.7441250570" lon="-1.8206908554"><ele>130.40</ele><time>2014-01-15T11:30:23Z</time></trkpt><trkpt lat="51.7440499552" lon="-1.8208915181"><ele>129.92</ele><time>2014-01-15T11:30:35Z</time></trkpt><trkpt lat="51.7440301739" lon="-1.8209356070"><ele>128.95</ele><time>2014-01-15T11:30:38Z</time></trkpt><trkpt lat="51.7440015916" lon="-1.8210602459"><ele>127.03</ele><time>2014-01-15T11:30:45Z</time></trkpt><trkpt lat="51.7439383082" lon="-1.8213484157"><ele>124.63</ele><time>2014-01-15T11:30:59Z</time></trkpt><trkpt lat="51.7439267412" lon="-1.8214320671"><ele>123.67</ele><time>2014-01-15T11:31:06Z</time></trkpt><trkpt lat="51.7439072113" lon="-1.8215039838"><ele>121.74</ele><time>2014-01-15T11:31:09Z</time></trkpt><trkpt lat="51.7438895255" lon="-1.8216526788"><ele>121.26</ele><time>2014-01-15T11:31:18Z</time></trkpt><trkpt lat="51.7439195327" lon="-1.8218071572"><ele>119.82</ele><time>2014-01-15T11:31:28Z</time></trkpt><trkpt lat="51.7439613584" lon="-1.8219985999"><ele>118.86</ele><time>2014-01-15T11:31:36Z</time></trkpt><trkpt lat="51.7439869232" lon="-1.8220810778"><ele>117.90</ele><time>2014-01-15T11:31:45Z</time></trkpt><trkpt lat="51.7440023459" lon="-1.8221618794"><ele>116.94</ele><time>2014-01-15T11:31:49Z</time></trkpt><trkpt lat="51.7440642882" lon="-1.8224268313"><ele>115.50</ele><time>2014-01-15T11:32:02Z</time></trkpt><trkpt lat="51.7441480234" lon="-1.8228385504"><ele>112.61</ele><time>2014-01-15T11:32:20Z</time></trkpt><trkpt lat="51.7441732530" lon="-1.8229542207"><ele>111.65</ele><time>2014-01-15T11:32:25Z</time></trkpt><trkpt lat="51.7441948783" lon="-1.8230943661"><ele>111.17</ele><time>2014-01-15T11:32:31Z</time></trkpt><trkpt lat="51.7442138214" lon="-1.8233459909"><ele>109.73</ele><time>2014-01-15T11:32:42Z</time></trkpt><trkpt lat="51.7442539707" lon="-1.8235768285"><ele>107.81</ele><time>2014-01-15T11:32:55Z</time></trkpt><trkpt lat="51.7442605924" lon="-1.8236429617"><ele>107.81</ele><time>2014-01-15T11:32:58Z</time></trkpt><trkpt lat="51.7443267256" lon="-1.8238847796"><ele>107.32</ele><time>2014-01-15T11:33:12Z</time></trkpt><trkpt lat="51.7443454172" lon="-1.8239416089"><ele>106.84</ele><time>2014-01-15T11:33:16Z</time></trkpt><trkpt lat="51.7443842255" lon="-1.8240214046"><ele>105.88</ele><time>2014-01-15T11:33:22Z</time></trkpt><trkpt lat="51.7444201000" lon="-1.8241058942"><ele>105.40</ele><time>2014-01-15T11:33:35Z</time></trkpt><trkpt lat="51.7444274761" lon="-1.8241189700"><ele>104.92</ele><time>2014-01-15T11:33:40Z</time></trkpt><trkpt lat="51.7444729060" lon="-1.8242421839"><ele>103.96</ele><time>2014-01-15T11:33:48Z</time></trkpt><trkpt lat="51.7444817908" lon="-1.8242799863"><ele>103.96</ele><time>2014-01-15T11:33:50Z</time></trkpt><trkpt lat="51.7446169071" lon="-1.8245166913"><ele>102.04</ele><time>2014-01-15T11:34:06Z</time></trkpt><trkpt lat="51.7447685357" lon="-1.8247436732"><ele>100.11</ele><time>2014-01-15T11:34:19Z</time></trkpt><trkpt lat="51.7448774166" lon="-1.8249828089"><ele>98.19</ele><time>2014-01-15T11:34:35Z</time></trkpt><trkpt lat="51.7448873911" lon="-1.8250111397"><ele>97.71</ele><time>2014-01-15T11:34:37Z</time></trkpt><trkpt lat="51.7449302226" lon="-1.8251266424"><ele>97.23</ele><time>2014-01-15T11:34:48Z</time></trkpt><trkpt lat="51.7449939251" lon="-1.8251515366"><ele>96.27</ele><time>2014-01-15T11:34:59Z</time></trkpt><trkpt lat="51.7450034805" lon="-1.8251670431"><ele>96.27</ele><time>2014-01-15T11:35:19Z</time></trkpt><trkpt lat="51.7450030614" lon="-1.8251698092"><ele>95.79</ele><time>2014-01-15T11:35:39Z</time></trkpt><trkpt lat="51.7450118624" lon="-1.8251843937"><ele>94.83</ele><time>2014-01-15T11:35:53Z</time></trkpt><trkpt lat="51.7450536881" lon="-1.8252462521"><ele>94.83</ele><time>2014-01-15T11:36:04Z</time></trkpt><trkpt lat="51.7451370880" lon="-1.8254017364"><ele>94.35</ele><time>2014-01-15T11:36:19Z</time></trkpt><trkpt lat="51.7452425323" lon="-1.8255715538"><ele>94.35</ele><time>2014-01-15T11:36:35Z</time></trkpt><trkpt lat="51.7452825978" lon="-1.8256660178"><ele>95.79</ele><time>2014-01-15T11:36:43Z</time></trkpt><trkpt lat="51.7453070730" lon="-1.8257211708"><ele>96.27</ele><time>2014-01-15T11:36:46Z</time></trkpt><trkpt lat="51.7454094160" lon="-1.8259587139"><ele>97.71</ele><time>2014-01-15T11:37:01Z</time></trkpt><trkpt lat="51.7454647366" lon="-1.8261217419"><ele>99.15</ele><time>2014-01-15T11:37:16Z</time></trkpt><trkpt lat="51.7455400899" lon="-1.8262817524"><ele>100.60</ele><time>2014-01-15T11:37:31Z</time></trkpt><trkpt lat="51.7456197180" lon="-1.8264585268"><ele>102.04</ele><time>2014-01-15T11:37:48Z</time></trkpt><trkpt lat="51.7457020283" lon="-1.8266198784"><ele>103.48</ele><time>2014-01-15T11:38:03Z</time></trkpt><trkpt lat="51.7457643896" lon="-1.8267653883"><ele>104.92</ele><time>2014-01-15T11:38:17Z</time></trkpt><trkpt lat="51.7458241526" lon="-1.8268965650"><ele>105.88</ele><time>2014-01-15T11:38:30Z</time></trkpt><trkpt lat="51.7458447721" lon="-1.8269328587"><ele>105.88</ele><time>2014-01-15T11:38:33Z</time></trkpt><trkpt lat="51.7459396552" lon="-1.8271517102"><ele>106.84</ele><time>2014-01-15T11:38:50Z</time></trkpt><trkpt lat="51.7460804712" lon="-1.8273126427"><ele>109.25</ele><time>2014-01-15T11:39:07Z</time></trkpt><trkpt lat="51.7461743485" lon="-1.8274380360"><ele>110.21</ele><time>2014-01-15T11:39:22Z</time></trkpt><trkpt lat="51.7461944651" lon="-1.8274455797"><ele>110.21</ele><time>2014-01-15T11:39:34Z</time></trkpt><trkpt lat="51.7461881787" lon="-1.8274472561"><ele>109.73</ele><time>2014-01-15T11:39:45Z</time></trkpt><trkpt lat="51.7462150846" lon="-1.8274232000"><ele>109.25</ele><time>2014-01-15T11:39:59Z</time></trkpt><trkpt lat="51.7462165933" lon="-1.8274178356"><ele>109.73</ele><time>2014-01-15T11:40:12Z</time></trkpt><trkpt lat="51.7462151684" lon="-1.8274098728"><ele>109.25</ele><time>2014-01-15T11:40:38Z</time></trkpt><trkpt lat="51.7462140787" lon="-1.8273983058"><ele>108.29</ele><time>2014-01-15T11:41:03Z</time></trkpt><trkpt lat="51.7462094687" lon="-1.8274096213"><ele>107.81</ele><time>2014-01-15T11:41:15Z</time></trkpt><trkpt lat="51.7462662142" lon="-1.8274939433"><ele>107.32</ele><time>2014-01-15T11:41:24Z</time></trkpt><trkpt lat="51.7463108897" lon="-1.8275309913"><ele>107.32</ele><time>2014-01-15T11:41:29Z</time></trkpt><trkpt lat="51.7463681381" lon="-1.8275747448"><ele>107.81</ele><time>2014-01-15T11:41:35Z</time></trkpt><trkpt lat="51.7463651206" lon="-1.8276089430"><ele>108.77</ele><time>2014-01-15T11:41:46Z</time></trkpt><trkpt lat="51.7463843152" lon="-1.8276277184"><ele>108.29</ele><time>2014-01-15T11:42:05Z</time></trkpt><trkpt lat="51.7464993149" lon="-1.8277039938"><ele>108.77</ele><time>2014-01-15T11:42:16Z</time></trkpt><trkpt lat="51.7466527037" lon="-1.8278234359"><ele>109.25</ele><time>2014-01-15T11:42:31Z</time></trkpt><trkpt lat="51.7468428891" lon="-1.8280190695"><ele>109.73</ele><time>2014-01-15T11:42:48Z</time></trkpt><trkpt lat="51.7469731439" lon="-1.8281828519"><ele>110.21</ele><time>2014-01-15T11:43:02Z</time></trkpt><trkpt lat="51.7471125349" lon="-1.8283522502"><ele>110.69</ele><time>2014-01-15T11:43:15Z</time></trkpt><trkpt lat="51.7472629901" lon="-1.8285728619"><ele>111.17</ele><time>2014-01-15T11:43:30Z</time></trkpt><trkpt lat="51.7473307159" lon="-1.8287032843"><ele>112.13</ele><time>2014-01-15T11:43:38Z</time></trkpt><trkpt lat="51.7473847792" lon="-1.8287703395"><ele>111.65</ele><time>2014-01-15T11:43:44Z</time></trkpt><trkpt lat="51.7474011239" lon="-1.8288157694"><ele>110.69</ele><time>2014-01-15T11:43:59Z</time></trkpt><trkpt lat="51.7474329751" lon="-1.8288980797"><ele>111.17</ele><time>2014-01-15T11:44:06Z</time></trkpt><trkpt lat="51.7474706937" lon="-1.8289621174"><ele>110.69</ele><time>2014-01-15T11:44:11Z</time></trkpt><trkpt lat="51.7475329712" lon="-1.8291211221"><ele>111.17</ele><time>2014-01-15T11:44:20Z</time></trkpt><trkpt lat="51.7475653253" lon="-1.8291662168"><ele>111.17</ele><time>2014-01-15T11:44:24Z</time></trkpt><trkpt lat="51.7476474680" lon="-1.8294528779"><ele>110.69</ele><time>2014-01-15T11:44:40Z</time></trkpt><trkpt lat="51.7476718593" lon="-1.8295256328"><ele>110.69</ele><time>2014-01-15T11:44:45Z</time></trkpt><trkpt lat="51.7477397528" lon="-1.8297533691"><ele>109.73</ele><time>2014-01-15T11:44:59Z</time></trkpt><trkpt lat="51.7478062212" lon="-1.8299949355"><ele>109.73</ele><time>2014-01-15T11:45:13Z</time></trkpt><trkpt lat="51.7478720192" lon="-1.8302277010"><ele>109.25</ele><time>2014-01-15T11:45:27Z</time></trkpt><trkpt lat="51.7478726897" lon="-1.8302436266"><ele>109.25</ele><time>2014-01-15T11:45:28Z</time></trkpt><trkpt lat="51.7478914652" lon="-1.8302782439"><ele>109.25</ele><time>2014-01-15T11:45:31Z</time></trkpt><trkpt lat="51.7479012720" lon="-1.8303116877"><ele>108.77</ele><time>2014-01-15T11:45:33Z</time></trkpt><trkpt lat="51.7479442712" lon="-1.8305685930"><ele>108.29</ele><time>2014-01-15T11:45:47Z</time></trkpt><trkpt lat="51.7479762901" lon="-1.8307605386"><ele>107.81</ele><time>2014-01-15T11:45:59Z</time></trkpt><trkpt lat="51.7480112426" lon="-1.8309451081"><ele>107.81</ele><time>2014-01-15T11:46:11Z</time></trkpt><trkpt lat="51.7480447702" lon="-1.8310528994"><ele>107.81</ele><time>2014-01-15T11:46:19Z</time></trkpt><trkpt lat="51.7480517272" lon="-1.8310995866"><ele>107.32</ele><time>2014-01-15T11:46:22Z</time></trkpt><trkpt lat="51.7480652221" lon="-1.8311636243"><ele>106.36</ele><time>2014-01-15T11:46:27Z</time></trkpt><trkpt lat="51.7480622884" lon="-1.8312396482"><ele>106.84</ele><time>2014-01-15T11:46:31Z</time></trkpt><trkpt lat="51.7480616178" lon="-1.8312750198"><ele>106.84</ele><time>2014-01-15T11:46:33Z</time></trkpt><trkpt lat="51.7481109872" lon="-1.8314954638"><ele>106.36</ele><time>2014-01-15T11:46:45Z</time></trkpt><trkpt lat="51.7481449340" lon="-1.8316798657"><ele>105.88</ele><time>2014-01-15T11:46:57Z</time></trkpt><trkpt lat="51.7481999192" lon="-1.8318651896"><ele>104.92</ele><time>2014-01-15T11:47:09Z</time></trkpt><trkpt lat="51.7482222151" lon="-1.8319392856"><ele>104.92</ele><time>2014-01-15T11:47:14Z</time></trkpt><trkpt lat="51.7482717521" lon="-1.8321422115"><ele>104.44</ele><time>2014-01-15T11:47:27Z</time></trkpt><trkpt lat="51.7483159248" lon="-1.8322919961"><ele>104.44</ele><time>2014-01-15T11:47:40Z</time></trkpt><trkpt lat="51.7483211216" lon="-1.8323182315"><ele>103.48</ele><time>2014-01-15T11:47:53Z</time></trkpt><trkpt lat="51.7483234685" lon="-1.8323263619"><ele>103.48</ele><time>2014-01-15T11:48:13Z</time></trkpt><trkpt lat="51.7483279947" lon="-1.8323348276"><ele>103.48</ele><time>2014-01-15T11:48:31Z</time></trkpt><trkpt lat="51.7483372148" lon="-1.8323313072"><ele>103.00</ele><time>2014-01-15T11:48:46Z</time></trkpt><trkpt lat="51.7483412381" lon="-1.8323409464"><ele>102.52</ele><time>2014-01-15T11:48:48Z</time></trkpt><trkpt lat="51.7483517993" lon="-1.8323676009"><ele>102.52</ele><time>2014-01-15T11:48:50Z</time></trkpt><trkpt lat="51.7484099697" lon="-1.8325323891"><ele>102.52</ele><time>2014-01-15T11:49:03Z</time></trkpt><trkpt lat="51.7484460957" lon="-1.8326146156"><ele>102.52</ele><time>2014-01-15T11:49:10Z</time></trkpt><trkpt lat="51.7484940402" lon="-1.8327390030"><ele>102.52</ele><time>2014-01-15T11:49:23Z</time></trkpt><trkpt lat="51.7484891787" lon="-1.8327463791"><ele>102.04</ele><time>2014-01-15T11:49:39Z</time></trkpt><trkpt lat="51.7484991532" lon="-1.8327854387"><ele>102.04</ele><time>2014-01-15T11:49:56Z</time></trkpt><trkpt lat="51.7485379614" lon="-1.8329211418"><ele>101.56</ele><time>2014-01-15T11:50:04Z</time></trkpt><trkpt lat="51.7485989816" lon="-1.8330956530"><ele>101.56</ele><time>2014-01-15T11:50:14Z</time></trkpt><trkpt lat="51.7487019114" lon="-1.8333617784"><ele>101.56</ele><time>2014-01-15T11:50:30Z</time></trkpt><trkpt lat="51.7487190943" lon="-1.8334152550"><ele>101.08</ele><time>2014-01-15T11:50:33Z</time></trkpt><trkpt lat="51.7487713974" lon="-1.8334728386"><ele>101.56</ele><time>2014-01-15T11:50:39Z</time></trkpt><trkpt lat="51.7488077749" lon="-1.8335316796"><ele>101.56</ele><time>2014-01-15T11:50:52Z</time></trkpt><trkpt lat="51.7488743272" lon="-1.8336631916"><ele>101.08</ele><time>2014-01-15T11:51:07Z</time></trkpt><trkpt lat="51.7489485070" lon="-1.8338177539"><ele>101.56</ele><time>2014-01-15T11:51:21Z</time></trkpt><trkpt lat="51.7489877343" lon="-1.8339095358"><ele>101.56</ele><time>2014-01-15T11:51:29Z</time></trkpt><trkpt lat="51.7490456533" lon="-1.8340111244"><ele>100.60</ele><time>2014-01-15T11:51:41Z</time></trkpt><trkpt lat="51.7490827851" lon="-1.8341078516"><ele>100.11</ele><time>2014-01-15T11:51:49Z</time></trkpt><trkpt lat="51.7491065897" lon="-1.8341693748"><ele>100.11</ele><time>2014-01-15T11:51:54Z</time></trkpt><trkpt lat="51.7491852958" lon="-1.8343295529"><ele>101.08</ele><time>2014-01-15T11:52:09Z</time></trkpt><trkpt lat="51.7492686957" lon="-1.8344791699"><ele>100.11</ele><time>2014-01-15T11:52:22Z</time></trkpt><trkpt lat="51.7493502516" lon="-1.8346211594"><ele>99.15</ele><time>2014-01-15T11:52:38Z</time></trkpt><trkpt lat="51.7493626568" lon="-1.8346402701"><ele>99.63</ele><time>2014-01-15T11:52:43Z</time></trkpt><trkpt lat="51.7493779119" lon="-1.8346694391"><ele>99.63</ele><time>2014-01-15T11:52:45Z</time></trkpt><trkpt lat="51.7494012136" lon="-1.8347178865"><ele>99.15</ele><time>2014-01-15T11:52:49Z</time></trkpt><trkpt lat="51.7494349089" lon="-1.8347675912"><ele>99.15</ele><time>2014-01-15T11:53:00Z</time></trkpt><trkpt lat="51.7494530138" lon="-1.8348043039"><ele>99.15</ele><time>2014-01-15T11:53:03Z</time></trkpt><trkpt lat="51.7495670915" lon="-1.8350196350"><ele>98.67</ele><time>2014-01-15T11:53:20Z</time></trkpt><trkpt lat="51.7496619746" lon="-1.8352039531"><ele>98.19</ele><time>2014-01-15T11:53:35Z</time></trkpt><trkpt lat="51.7497364897" lon="-1.8353447691"><ele>97.23</ele><time>2014-01-15T11:53:48Z</time></trkpt><trkpt lat="51.7498637270" lon="-1.8355102278"><ele>96.75</ele><time>2014-01-15T11:53:53Z</time></trkpt><trkpt lat="51.7499106657" lon="-1.8355711643"><ele>96.27</ele><time>2014-01-15T11:53:59Z</time></trkpt><trkpt lat="51.7499270104" lon="-1.8355839048"><ele>96.27</ele><time>2014-01-15T11:54:00Z</time></trkpt><trkpt lat="51.7501881067" lon="-1.8356191926"><ele>95.79</ele><time>2014-01-15T11:54:18Z</time></trkpt><trkpt lat="51.7503377236" lon="-1.8356671371"><ele>95.31</ele><time>2014-01-15T11:54:31Z</time></trkpt><trkpt lat="51.7503463570" lon="-1.8356786203"><ele>95.31</ele><time>2014-01-15T11:54:32Z</time></trkpt><trkpt lat="51.7503238097" lon="-1.8357229605"><ele>95.79</ele><time>2014-01-15T11:54:35Z</time></trkpt><trkpt lat="51.7502856720" lon="-1.8358324282"><ele>95.79</ele><time>2014-01-15T11:54:46Z</time></trkpt><trkpt lat="51.7502045352" lon="-1.8361009005"><ele>95.31</ele><time>2014-01-15T11:55:04Z</time></trkpt><trkpt lat="51.7501904536" lon="-1.8362389505"><ele>96.27</ele><time>2014-01-15T11:55:17Z</time></trkpt><trkpt lat="51.7502150964" lon="-1.8362733163"><ele>96.27</ele><time>2014-01-15T11:55:32Z</time></trkpt><trkpt lat="51.7502875999" lon="-1.8363528606"><ele>95.79</ele><time>2014-01-15T11:55:44Z</time></trkpt><trkpt lat="51.7503095604" lon="-1.8364080973"><ele>96.27</ele><time>2014-01-15T11:56:01Z</time></trkpt><trkpt lat="51.7503092252" lon="-1.8364091031"><ele>96.27</ele><time>2014-01-15T11:56:17Z</time></trkpt><trkpt lat="51.7503116559" lon="-1.8364143837"><ele>97.23</ele><time>2014-01-15T11:56:38Z</time></trkpt><trkpt lat="51.7503383104" lon="-1.8364607356"><ele>97.71</ele><time>2014-01-15T11:56:44Z</time></trkpt><trkpt lat="51.7504174355" lon="-1.8365762383"><ele>98.19</ele><time>2014-01-15T11:56:55Z</time></trkpt><trkpt lat="51.7504912801" lon="-1.8367339019"><ele>98.19</ele><time>2014-01-15T11:57:08Z</time></trkpt><trkpt lat="51.7505823914" lon="-1.8368626479"><ele>99.15</ele><time>2014-01-15T11:57:19Z</time></trkpt><trkpt lat="51.7505920306" lon="-1.8368742988"><ele>98.67</ele><time>2014-01-15T11:57:20Z</time></trkpt><trkpt lat="51.7506667133" lon="-1.8370162882"><ele>99.15</ele><time>2014-01-15T11:57:29Z</time></trkpt><trkpt lat="51.7507137358" lon="-1.8370628916"><ele>99.63</ele><time>2014-01-15T11:57:34Z</time></trkpt><trkpt lat="51.7508144025" lon="-1.8372505624"><ele>99.63</ele><time>2014-01-15T11:57:48Z</time></trkpt><trkpt lat="51.7509069387" lon="-1.8374233972"><ele>100.60</ele><time>2014-01-15T11:58:01Z</time></trkpt><trkpt lat="51.7509824596" lon="-1.8375639617"><ele>100.60</ele><time>2014-01-15T11:58:13Z</time></trkpt><trkpt lat="51.7510756664" lon="-1.8377711624"><ele>101.56</ele><time>2014-01-15T11:58:28Z</time></trkpt><trkpt lat="51.7511685379" lon="-1.8379297480"><ele>101.08</ele><time>2014-01-15T11:58:41Z</time></trkpt><trkpt lat="51.7512015626" lon="-1.8379951268"><ele>101.08</ele><time>2014-01-15T11:58:46Z</time></trkpt><trkpt lat="51.7513178196" lon="-1.8382158224"><ele>102.52</ele><time>2014-01-15T11:59:02Z</time></trkpt><trkpt lat="51.7513842043" lon="-1.8383744918"><ele>101.56</ele><time>2014-01-15T11:59:15Z</time></trkpt><trkpt lat="51.7514741421" lon="-1.8385568820"><ele>101.56</ele><time>2014-01-15T11:59:28Z</time></trkpt><trkpt lat="51.7515662592" lon="-1.8387458939"><ele>100.60</ele><time>2014-01-15T11:59:42Z</time></trkpt><trkpt lat="51.7516341526" lon="-1.8388960976"><ele>100.60</ele><time>2014-01-15T11:59:55Z</time></trkpt><trkpt lat="51.7517007887" lon="-1.8390571978"><ele>100.60</ele><time>2014-01-15T12:00:08Z</time></trkpt><trkpt lat="51.7517054826" lon="-1.8390649091"><ele>100.60</ele><time>2014-01-15T12:00:09Z</time></trkpt><trkpt lat="51.7517699394" lon="-1.8392169569"><ele>100.60</ele><time>2014-01-15T12:00:21Z</time></trkpt><trkpt lat="51.7517876253" lon="-1.8392556813"><ele>101.08</ele><time>2014-01-15T12:00:24Z</time></trkpt><trkpt lat="51.7518573627" lon="-1.8393990956"><ele>100.60</ele><time>2014-01-15T12:00:36Z</time></trkpt><trkpt lat="51.7518977635" lon="-1.8395199627"><ele>100.60</ele><time>2014-01-15T12:00:47Z</time></trkpt><trkpt lat="51.7519172933" lon="-1.8395578489"><ele>100.60</ele><time>2014-01-15T12:00:50Z</time></trkpt><trkpt lat="51.7519284412" lon="-1.8395914603"><ele>100.60</ele><time>2014-01-15T12:00:53Z</time></trkpt><trkpt lat="51.7519496474" lon="-1.8396364711"><ele>100.60</ele><time>2014-01-15T12:00:56Z</time></trkpt><trkpt lat="51.7520045489" lon="-1.8397512194"><ele>100.11</ele><time>2014-01-15T12:01:04Z</time></trkpt><trkpt lat="51.7520343047" lon="-1.8397948053"><ele>100.60</ele><time>2014-01-15T12:01:08Z</time></trkpt><trkpt lat="51.7520580254" lon="-1.8398362119"><ele>100.60</ele><time>2014-01-15T12:01:11Z</time></trkpt><trkpt lat="51.7520745378" lon="-1.8398752715"><ele>100.60</ele><time>2014-01-15T12:01:14Z</time></trkpt><trkpt lat="51.7520924751" lon="-1.8399176002"><ele>101.08</ele><time>2014-01-15T12:01:17Z</time></trkpt><trkpt lat="51.7521971650" lon="-1.8401129823"><ele>100.60</ele><time>2014-01-15T12:01:33Z</time></trkpt><trkpt lat="51.7522085644" lon="-1.8401355296"><ele>100.11</ele><time>2014-01-15T12:01:35Z</time></trkpt><trkpt lat="51.7522348836" lon="-1.8401905149"><ele>101.08</ele><time>2014-01-15T12:01:39Z</time></trkpt><trkpt lat="51.7522957362" lon="-1.8403272238"><ele>100.11</ele><time>2014-01-15T12:01:53Z</time></trkpt><trkpt lat="51.7523416691" lon="-1.8404298183"><ele>99.63</ele><time>2014-01-15T12:02:05Z</time></trkpt><trkpt lat="51.7523572594" lon="-1.8404368591"><ele>100.60</ele><time>2014-01-15T12:02:18Z</time></trkpt><trkpt lat="51.7523857579" lon="-1.8404796906"><ele>100.11</ele><time>2014-01-15T12:02:30Z</time></trkpt><trkpt lat="51.7524404917" lon="-1.8405716401"><ele>100.11</ele><time>2014-01-15T12:02:42Z</time></trkpt><trkpt lat="51.7524881847" lon="-1.8406491727"><ele>100.60</ele><time>2014-01-15T12:02:58Z</time></trkpt><trkpt lat="51.7525357101" lon="-1.8407332432"><ele>100.60</ele><time>2014-01-15T12:03:07Z</time></trkpt><trkpt lat="51.7526288331" lon="-1.8408676889"><ele>101.08</ele><time>2014-01-15T12:03:21Z</time></trkpt><trkpt lat="51.7526647076" lon="-1.8409235962"><ele>100.11</ele><time>2014-01-15T12:03:27Z</time></trkpt><trkpt lat="51.7527328525" lon="-1.8410518393"><ele>100.11</ele><time>2014-01-15T12:03:39Z</time></trkpt><trkpt lat="51.7527917773" lon="-1.8411309645"><ele>99.63</ele><time>2014-01-15T12:03:50Z</time></trkpt><trkpt lat="51.7528988142" lon="-1.8412970100"><ele>99.63</ele><time>2014-01-15T12:04:04Z</time></trkpt><trkpt lat="51.7530038394" lon="-1.8414315395"><ele>98.67</ele><time>2014-01-15T12:04:17Z</time></trkpt><trkpt lat="51.7530423962" lon="-1.8414616305"><ele>98.19</ele><time>2014-01-15T12:04:22Z</time></trkpt><trkpt lat="51.7531038355" lon="-1.8414960802"><ele>98.67</ele><time>2014-01-15T12:04:29Z</time></trkpt><trkpt lat="51.7531488463" lon="-1.8414860219"><ele>99.63</ele><time>2014-01-15T12:04:40Z</time></trkpt><trkpt lat="51.7532051727" lon="-1.8414281029"><ele>99.63</ele><time>2014-01-15T12:04:48Z</time></trkpt><trkpt lat="51.7532812804" lon="-1.8413300347"><ele>99.15</ele><time>2014-01-15T12:05:01Z</time></trkpt><trkpt lat="51.7532814480" lon="-1.8413317110"><ele>99.15</ele><time>2014-01-15T12:05:05Z</time></trkpt><trkpt lat="51.7533227708" lon="-1.8413016200"><ele>99.63</ele><time>2014-01-15T12:05:10Z</time></trkpt><trkpt lat="51.7534297239" lon="-1.8411960080"><ele>100.11</ele><time>2014-01-15T12:05:22Z</time></trkpt><trkpt lat="51.7535326537" lon="-1.8410934974"><ele>100.60</ele><time>2014-01-15T12:05:33Z</time></trkpt><trkpt lat="51.7535986193" lon="-1.8410392664"><ele>100.60</ele><time>2014-01-15T12:05:40Z</time></trkpt><trkpt lat="51.7536282912" lon="-1.8410064094"><ele>101.56</ele><time>2014-01-15T12:05:43Z</time></trkpt><trkpt lat="51.7536757328" lon="-1.8409483228"><ele>102.04</ele><time>2014-01-15T12:05:48Z</time></trkpt><trkpt lat="51.7537197378" lon="-1.8409106880"><ele>102.04</ele><time>2014-01-15T12:05:53Z</time></trkpt><trkpt lat="51.7537454702" lon="-1.8408827763"><ele>102.52</ele><time>2014-01-15T12:05:56Z</time></trkpt><trkpt lat="51.7537792493" lon="-1.8408490811"><ele>102.52</ele><time>2014-01-15T12:06:00Z</time></trkpt><trkpt lat="51.7538507469" lon="-1.8407842889"><ele>103.00</ele><time>2014-01-15T12:06:07Z</time></trkpt><trkpt lat="51.7539400980" lon="-1.8407364283"><ele>103.48</ele><time>2014-01-15T12:06:15Z</time></trkpt><trkpt lat="51.7539914791" lon="-1.8406756595"><ele>103.96</ele><time>2014-01-15T12:06:20Z</time></trkpt><trkpt lat="51.7541096639" lon="-1.8405888230"><ele>103.96</ele><time>2014-01-15T12:06:31Z</time></trkpt><trkpt lat="51.7542027868" lon="-1.8405011483"><ele>104.44</ele><time>2014-01-15T12:06:42Z</time></trkpt><trkpt lat="51.7543228157" lon="-1.8404037505"><ele>104.92</ele><time>2014-01-15T12:06:56Z</time></trkpt><trkpt lat="51.7543353885" lon="-1.8403917644"><ele>104.92</ele><time>2014-01-15T12:06:58Z</time></trkpt><trkpt lat="51.7543525714" lon="-1.8403761741"><ele>105.40</ele><time>2014-01-15T12:07:00Z</time></trkpt><trkpt lat="51.7544394080" lon="-1.8402953725"><ele>105.40</ele><time>2014-01-15T12:07:11Z</time></trkpt><trkpt lat="51.7545378953" lon="-1.8402134813"><ele>105.88</ele><time>2014-01-15T12:07:22Z</time></trkpt><trkpt lat="51.7546647973" lon="-1.8401148263"><ele>106.36</ele><time>2014-01-15T12:07:35Z</time></trkpt><trkpt lat="51.7546940502" lon="-1.8400875852"><ele>106.84</ele><time>2014-01-15T12:07:44Z</time></trkpt><trkpt lat="51.7548024282" lon="-1.8399818055"><ele>107.32</ele><time>2014-01-15T12:07:57Z</time></trkpt><trkpt lat="51.7548836488" lon="-1.8399125710"><ele>107.81</ele><time>2014-01-15T12:08:07Z</time></trkpt><trkpt lat="51.7550005764" lon="-1.8398187775"><ele>107.32</ele><time>2014-01-15T12:08:19Z</time></trkpt><trkpt lat="51.7550230399" lon="-1.8398066238"><ele>107.81</ele><time>2014-01-15T12:08:21Z</time></trkpt><trkpt lat="51.7551284842" lon="-1.8397213798"><ele>108.29</ele><time>2014-01-15T12:08:34Z</time></trkpt><trkpt lat="51.7551423982" lon="-1.8397065438"><ele>108.29</ele><time>2014-01-15T12:08:36Z</time></trkpt><trkpt lat="51.7551712319" lon="-1.8396867625"><ele>108.77</ele><time>2014-01-15T12:08:39Z</time></trkpt><trkpt lat="51.7551904265" lon="-1.8396778777"><ele>108.29</ele><time>2014-01-15T12:08:41Z</time></trkpt><trkpt lat="51.7552284803" lon="-1.8396353815"><ele>108.77</ele><time>2014-01-15T12:08:46Z</time></trkpt><trkpt lat="51.7552719824" lon="-1.8396031111"><ele>108.77</ele><time>2014-01-15T12:08:51Z</time></trkpt><trkpt lat="51.7553166579" lon="-1.8395737745"><ele>108.77</ele><time>2014-01-15T12:08:56Z</time></trkpt><trkpt lat="51.7554392014" lon="-1.8394614570"><ele>109.73</ele><time>2014-01-15T12:09:10Z</time></trkpt><trkpt lat="51.7554739024" lon="-1.8394354731"><ele>109.25</ele><time>2014-01-15T12:09:14Z</time></trkpt><trkpt lat="51.7554936837" lon="-1.8394208886"><ele>109.25</ele><time>2014-01-15T12:09:16Z</time></trkpt><trkpt lat="51.7555169016" lon="-1.8393913843"><ele>109.25</ele><time>2014-01-15T12:09:19Z</time></trkpt><trkpt lat="51.7556315660" lon="-1.8392940704"><ele>109.73</ele><time>2014-01-15T12:09:32Z</time></trkpt><trkpt lat="51.7557049077" lon="-1.8392344750"><ele>110.21</ele><time>2014-01-15T12:09:41Z</time></trkpt><trkpt lat="51.7558368389" lon="-1.8391576130"><ele>110.69</ele><time>2014-01-15T12:09:55Z</time></trkpt><trkpt lat="51.7559505813" lon="-1.8390708603"><ele>110.69</ele><time>2014-01-15T12:10:09Z</time></trkpt><trkpt lat="51.7559766490" lon="-1.8390579522"><ele>110.69</ele><time>2014-01-15T12:10:11Z</time></trkpt><trkpt lat="51.7560111824" lon="-1.8390167132"><ele>110.69</ele><time>2014-01-15T12:10:15Z</time></trkpt><trkpt lat="51.7561248410" lon="-1.8389359955"><ele>110.69</ele><time>2014-01-15T12:10:28Z</time></trkpt><trkpt lat="51.7562026251" lon="-1.8389017135"><ele>110.69</ele><time>2014-01-15T12:10:42Z</time></trkpt><trkpt lat="51.7563204747" lon="-1.8388381787"><ele>111.65</ele><time>2014-01-15T12:10:56Z</time></trkpt><trkpt lat="51.7563575227" lon="-1.8388451356"><ele>111.17</ele><time>2014-01-15T12:11:08Z</time></trkpt><trkpt lat="51.7563543376" lon="-1.8388366699"><ele>111.65</ele><time>2014-01-15T12:11:25Z</time></trkpt><trkpt lat="51.7563536670" lon="-1.8388359994"><ele>111.65</ele><time>2014-01-15T12:11:40Z</time></trkpt><trkpt lat="51.7563467100" lon="-1.8388415314"><ele>111.65</ele><time>2014-01-15T12:11:58Z</time></trkpt><trkpt lat="51.7563493922" lon="-1.8388449680"><ele>112.13</ele><time>2014-01-15T12:12:15Z</time></trkpt><trkpt lat="51.7563488055" lon="-1.8388356641"><ele>111.17</ele><time>2014-01-15T12:12:32Z</time></trkpt><trkpt lat="51.7563537508" lon="-1.8388033099"><ele>112.61</ele><time>2014-01-15T12:12:35Z</time></trkpt><trkpt lat="51.7564527411" lon="-1.8387168087"><ele>112.61</ele><time>2014-01-15T12:12:48Z</time></trkpt><trkpt lat="51.7564643081" lon="-1.8387106899"><ele>113.09</ele><time>2014-01-15T12:12:49Z</time></trkpt><trkpt lat="51.7565069720" lon="-1.8386976141"><ele>113.09</ele><time>2014-01-15T12:12:53Z</time></trkpt><trkpt lat="51.7565307766" lon="-1.8386716302"><ele>112.61</ele><time>2014-01-15T12:12:56Z</time></trkpt><trkpt lat="51.7566467822" lon="-1.8385611568"><ele>112.13</ele><time>2014-01-15T12:13:08Z</time></trkpt><trkpt lat="51.7566667311" lon="-1.8385251984"><ele>112.13</ele><time>2014-01-15T12:13:11Z</time></trkpt><trkpt lat="51.7567654699" lon="-1.8384286389"><ele>112.61</ele><time>2014-01-15T12:13:22Z</time></trkpt><trkpt lat="51.7568624485" lon="-1.8383242004"><ele>111.65</ele><time>2014-01-15T12:13:35Z</time></trkpt><trkpt lat="51.7569492012" lon="-1.8382262159"><ele>112.61</ele><time>2014-01-15T12:13:47Z</time></trkpt><trkpt lat="51.7570203636" lon="-1.8381499406"><ele>111.65</ele><time>2014-01-15T12:13:56Z</time></trkpt><trkpt lat="51.7570939567" lon="-1.8380897585"><ele>112.61</ele><time>2014-01-15T12:14:05Z</time></trkpt><trkpt lat="51.7571228743" lon="-1.8380698096"><ele>112.13</ele><time>2014-01-15T12:14:08Z</time></trkpt><trkpt lat="51.7572691385" lon="-1.8379144929"><ele>112.13</ele><time>2014-01-15T12:14:23Z</time></trkpt><trkpt lat="51.7572833039" lon="-1.8378997408"><ele>112.13</ele><time>2014-01-15T12:14:25Z</time></trkpt><trkpt lat="51.7574053444" lon="-1.8377668038"><ele>112.13</ele><time>2014-01-15T12:14:39Z</time></trkpt><trkpt lat="51.7574381176" lon="-1.8377299234"><ele>111.65</ele><time>2014-01-15T12:14:54Z</time></trkpt><trkpt lat="51.7575086094" lon="-1.8376680650"><ele>111.65</ele><time>2014-01-15T12:15:07Z</time></trkpt><trkpt lat="51.7575975414" lon="-1.8375644647"><ele>111.17</ele><time>2014-01-15T12:15:20Z</time></trkpt><trkpt lat="51.7576890718" lon="-1.8374630436"><ele>110.69</ele><time>2014-01-15T12:15:33Z</time></trkpt><trkpt lat="51.7577322386" lon="-1.8374122493"><ele>110.21</ele><time>2014-01-15T12:15:45Z</time></trkpt><trkpt lat="51.7577741481" lon="-1.8373260833"><ele>110.21</ele><time>2014-01-15T12:15:52Z</time></trkpt><trkpt lat="51.7578265350" lon="-1.8372554239"><ele>109.73</ele><time>2014-01-15T12:15:58Z</time></trkpt><trkpt lat="51.7579385173" lon="-1.8371686712"><ele>108.77</ele><time>2014-01-15T12:16:11Z</time></trkpt><trkpt lat="51.7580530979" lon="-1.8370553479"><ele>107.81</ele><time>2014-01-15T12:16:25Z</time></trkpt><trkpt lat="51.7580628209" lon="-1.8370479718"><ele>107.81</ele><time>2014-01-15T12:16:26Z</time></trkpt><trkpt lat="51.7581719533" lon="-1.8369699363"><ele>106.84</ele><time>2014-01-15T12:16:39Z</time></trkpt><trkpt lat="51.7582144495" lon="-1.8369421922"><ele>106.84</ele><time>2014-01-15T12:16:44Z</time></trkpt><trkpt lat="51.7583250068" lon="-1.8368940800"><ele>105.40</ele><time>2014-01-15T12:16:58Z</time></trkpt><trkpt lat="51.7584136035" lon="-1.8368451297"><ele>105.40</ele><time>2014-01-15T12:17:12Z</time></trkpt><trkpt lat="51.7584616318" lon="-1.8368268572"><ele>104.44</ele><time>2014-01-15T12:17:28Z</time></trkpt><trkpt lat="51.7585602868" lon="-1.8366280384"><ele>102.52</ele><time>2014-01-15T12:17:45Z</time></trkpt><trkpt lat="51.7585944850" lon="-1.8364880607"><ele>101.56</ele><time>2014-01-15T12:17:57Z</time></trkpt><trkpt lat="51.7586072255" lon="-1.8363744020"><ele>100.11</ele><time>2014-01-15T12:18:11Z</time></trkpt><trkpt lat="51.7586863507" lon="-1.8362808600"><ele>99.63</ele><time>2014-01-15T12:18:30Z</time></trkpt><trkpt lat="51.7587218061" lon="-1.8361990526"><ele>98.19</ele><time>2014-01-15T12:18:41Z</time></trkpt><trkpt lat="51.7587438505" lon="-1.8360817898"><ele>97.23</ele><time>2014-01-15T12:18:53Z</time></trkpt><trkpt lat="51.7587130051" lon="-1.8359950371"><ele>95.31</ele><time>2014-01-15T12:19:07Z</time></trkpt><trkpt lat="51.7587118316" lon="-1.8359199353"><ele>93.39</ele><time>2014-01-15T12:19:21Z</time></trkpt><trkpt lat="51.7586723529" lon="-1.8356605992"><ele>92.42</ele><time>2014-01-15T12:19:40Z</time></trkpt><trkpt lat="51.7586688325" lon="-1.8355588429"><ele>90.98</ele><time>2014-01-15T12:19:48Z</time></trkpt><trkpt lat="51.7585769668" lon="-1.8351699226"><ele>89.54</ele><time>2014-01-15T12:20:04Z</time></trkpt><trkpt lat="51.7586016096" lon="-1.8350655679"><ele>88.58</ele><time>2014-01-15T12:20:16Z</time></trkpt><trkpt lat="51.7586070579" lon="-1.8350229878"><ele>87.62</ele><time>2014-01-15T12:20:19Z</time></trkpt><trkpt lat="51.7586051300" lon="-1.8349426892"><ele>87.62</ele><time>2014-01-15T12:20:31Z</time></trkpt><trkpt lat="51.7586018611" lon="-1.8349484727"><ele>88.10</ele><time>2014-01-15T12:20:41Z</time></trkpt><trkpt lat="51.7585924733" lon="-1.8348972593"><ele>88.10</ele><time>2014-01-15T12:20:44Z</time></trkpt><trkpt lat="51.7585959099" lon="-1.8347501568"><ele>88.10</ele><time>2014-01-15T12:20:52Z</time></trkpt><trkpt lat="51.7586115841" lon="-1.8345386814"><ele>87.62</ele><time>2014-01-15T12:21:02Z</time></trkpt><trkpt lat="51.7585856002" lon="-1.8342504278"><ele>88.58</ele><time>2014-01-15T12:21:16Z</time></trkpt><trkpt lat="51.7585881986" lon="-1.8341784272"><ele>88.58</ele><time>2014-01-15T12:21:20Z</time></trkpt><trkpt lat="51.7586088181" lon="-1.8340768386"><ele>89.06</ele><time>2014-01-15T12:21:33Z</time></trkpt><trkpt lat="51.7585975863" lon="-1.8340522796"><ele>88.58</ele><time>2014-01-15T12:21:40Z</time></trkpt><trkpt lat="51.7586054653" lon="-1.8338485155"><ele>88.58</ele><time>2014-01-15T12:21:52Z</time></trkpt><trkpt lat="51.7586880270" lon="-1.8336519599"><ele>89.54</ele><time>2014-01-15T12:22:06Z</time></trkpt><trkpt lat="51.7587043718" lon="-1.8336364534"><ele>89.06</ele><time>2014-01-15T12:22:09Z</time></trkpt><trkpt lat="51.7588610295" lon="-1.8336758483"><ele>89.06</ele><time>2014-01-15T12:22:21Z</time></trkpt><trkpt lat="51.7589387298" lon="-1.8337372877"><ele>89.54</ele><time>2014-01-15T12:22:29Z</time></trkpt><trkpt lat="51.7590043601" lon="-1.8337912671"><ele>89.54</ele><time>2014-01-15T12:22:42Z</time></trkpt><trkpt lat="51.7590939626" lon="-1.8338649441"><ele>89.54</ele><time>2014-01-15T12:22:53Z</time></trkpt><trkpt lat="51.7591570783" lon="-1.8339056801"><ele>90.02</ele><time>2014-01-15T12:23:07Z</time></trkpt><trkpt lat="51.7592063639" lon="-1.8339501880"><ele>90.02</ele><time>2014-01-15T12:23:12Z</time></trkpt><trkpt lat="51.7593301646" lon="-1.8340688758"><ele>89.54</ele><time>2014-01-15T12:23:25Z</time></trkpt><trkpt lat="51.7594553065" lon="-1.8341984600"><ele>90.02</ele><time>2014-01-15T12:23:41Z</time></trkpt><trkpt lat="51.7595699709" lon="-1.8342882302"><ele>89.54</ele><time>2014-01-15T12:23:54Z</time></trkpt><trkpt lat="51.7596535385" lon="-1.8343696184"><ele>89.54</ele><time>2014-01-15T12:24:05Z</time></trkpt><trkpt lat="51.7597491760" lon="-1.8344666809"><ele>89.54</ele><time>2014-01-15T12:24:20Z</time></trkpt><trkpt lat="51.7598348390" lon="-1.8345299643"><ele>89.06</ele><time>2014-01-15T12:24:32Z</time></trkpt><trkpt lat="51.7599319853" lon="-1.8346050661"><ele>90.02</ele><time>2014-01-15T12:24:44Z</time></trkpt><trkpt lat="51.7600180674" lon="-1.8346865382"><ele>90.02</ele><time>2014-01-15T12:24:55Z</time></trkpt><trkpt lat="51.7601240985" lon="-1.8347708602"><ele>90.98</ele><time>2014-01-15T12:25:09Z</time></trkpt><trkpt lat="51.7601957638" lon="-1.8348054774"><ele>90.50</ele><time>2014-01-15T12:25:24Z</time></trkpt><trkpt lat="51.7603209894" lon="-1.8348501530"><ele>90.50</ele><time>2014-01-15T12:25:37Z</time></trkpt><trkpt lat="51.7603789084" lon="-1.8348088302"><ele>90.02</ele><time>2014-01-15T12:25:45Z</time></trkpt><trkpt lat="51.7605291121" lon="-1.8347924855"><ele>90.50</ele><time>2014-01-15T12:25:57Z</time></trkpt><trkpt lat="51.7606360652" lon="-1.8348460458"><ele>90.98</ele><time>2014-01-15T12:26:05Z</time></trkpt><trkpt lat="51.7606571876" lon="-1.8348423578"><ele>90.50</ele><time>2014-01-15T12:26:07Z</time></trkpt><trkpt lat="51.7607213091" lon="-1.8348913919"><ele>90.50</ele><time>2014-01-15T12:26:13Z</time></trkpt><trkpt lat="51.7607559264" lon="-1.8348932359"><ele>90.50</ele><time>2014-01-15T12:26:16Z</time></trkpt><trkpt lat="51.7608860973" lon="-1.8349779770"><ele>90.98</ele><time>2014-01-15T12:26:27Z</time></trkpt><trkpt lat="51.7609503027" lon="-1.8349752109"><ele>91.46</ele><time>2014-01-15T12:26:38Z</time></trkpt><trkpt lat="51.7610015161" lon="-1.8349632248"><ele>90.98</ele><time>2014-01-15T12:26:51Z</time></trkpt><trkpt lat="51.7610207107" lon="-1.8349548429"><ele>91.94</ele><time>2014-01-15T12:27:05Z</time></trkpt><trkpt lat="51.7610401567" lon="-1.8349591177"><ele>90.98</ele><time>2014-01-15T12:27:20Z</time></trkpt><trkpt lat="51.7610400729" lon="-1.8349586148"><ele>92.42</ele><time>2014-01-15T12:27:21Z</time></trkpt></trkseg></trk></gpx>